Wetterdaten: Donnerstag, 06.02.2020
Datum Zeit Temp. Aussen Temp. o. S. Temp +5cm Feuchte Auss Luftdruck Regen Sonnenschein Regendauer Solar Windben Empfang
06.02.2020 00:00 4,3 C 3,9 C 3,3 C 90 % 1035,9 hPa 0,0 l/m 0 min 0 min 0 W/m 6,4 km/h (2 Bft) 95,74 %
06.02.2020 00:02 4,3 C 3,9 C 3,3 C 90 % 1035,9 hPa 0,0 l/m 0 min 0 min 0 W/m 6,4 km/h (2 Bft) 93,33 %
06.02.2020 00:04 4,3 C 3,9 C 3,3 C 90 % 1035,9 hPa 0,0 l/m 0 min 0 min 0 W/m 3,2 km/h (1 Bft) 95,74 %
06.02.2020 00:08 4,3 C 3,9 C 3,3 C 90 % 1035,9 hPa 0,0 l/m 0 min 0 min 0 W/m 6,4 km/h (2 Bft) 92,47 %
06.02.2020 00:10 4,3 C 3,9 C 3,3 C 90 % 1035,8 hPa 0,0 l/m 0 min 0 min 0 W/m 0,0 km/h (0 Bft) 93,62 %
06.02.2020 00:12 4,3 C 3,9 C 3,3 C 90 % 1035,8 hPa 0,0 l/m 0 min 0 min 0 W/m 6,4 km/h (2 Bft) 91,49 %
06.02.2020 00:14 4,3 C 3,9 C 3,3 C 90 % 1035,8 hPa 0,0 l/m 0 min 0 min 0 W/m 3,2 km/h (1 Bft) 93,62 %
06.02.2020 00:16 4,3 C 3,9 C 3,3 C 90 % 1035,7 hPa 0,0 l/m 0 min 0 min 0 W/m 3,2 km/h (1 Bft) 91,49 %
06.02.2020 00:18 4,3 C 3,9 C 3,3 C 90 % 1035,7 hPa 0,0 l/m 0 min 0 min 0 W/m 0,0 km/h (0 Bft) 91,30 %
06.02.2020 00:20 4,3 C 3,9 C 3,3 C 90 % 1035,8 hPa 0,0 l/m 0 min 0 min 0 W/m 0,0 km/h (0 Bft) 93,62 %
06.02.2020 00:22 4,3 C 3,9 C 3,3 C 90 % 1035,8 hPa 0,0 l/m 0 min 0 min 0 W/m 3,2 km/h (1 Bft) 91,49 %
06.02.2020 00:24 4,3 C 3,9 C 3,3 C 90 % 1035,8 hPa 0,0 l/m 0 min 0 min 0 W/m 3,2 km/h (1 Bft) 93,62 %
06.02.2020 00:26 4,3 C 3,9 C 3,3 C 90 % 1035,7 hPa 0,0 l/m 0 min 0 min 0 W/m 3,2 km/h (1 Bft) 93,62 %
06.02.2020 00:28 4,3 C 3,9 C 3,3 C 90 % 1035,6 hPa 0,0 l/m 0 min 0 min 0 W/m 6,4 km/h (2 Bft) 91,43 %
06.02.2020 00:30 4,3 C 3,9 C 3,3 C 90 % 1035,6 hPa 0,0 l/m 0 min 0 min 0 W/m 0,0 km/h (0 Bft) 94,44 %
06.02.2020 00:32 4,3 C 3,9 C 3,3 C 90 % 1035,6 hPa 0,0 l/m 0 min 0 min 0 W/m 0,0 km/h (0 Bft) 95,92 %
06.02.2020 00:34 4,3 C 3,9 C 3,3 C 90 % 1035,6 hPa 0,0 l/m 0 min 0 min 0 W/m 0,0 km/h (0 Bft) 95,92 %
06.02.2020 00:36 4,3 C 3,9 C 3,3 C 90 % 1035,6 hPa 0,0 l/m 0 min 0 min 0 W/m 0,0 km/h (0 Bft) 94,29 %
06.02.2020 00:38 4,3 C 3,9 C 3,3 C 90 % 1035,5 hPa 0,0 l/m 0 min 0 min 0 W/m 6,4 km/h (2 Bft) 92,59 %
06.02.2020 00:40 4,3 C 3,9 C 3,3 C 90 % 1035,5 hPa 0,0 l/m 0 min 0 min 0 W/m 3,2 km/h (1 Bft) 94,00 %
06.02.2020 00:42 4,3 C 3,9 C 3,3 C 90 % 1035,5 hPa 0,0 l/m 0 min 0 min 0 W/m 0,0 km/h (0 Bft) 95,83 %
06.02.2020 00:44 4,3 C 3,9 C 3,3 C 90 % 1035,5 hPa 0,0 l/m 0 min 0 min 0 W/m 0,0 km/h (0 Bft) 54,55 %
06.02.2020 00:46 4,3 C 3,9 C 3,3 C 90 % 1035,5 hPa 0,0 l/m 0 min 0 min 0 W/m 0,0 km/h (0 Bft) 95,74 %
06.02.2020 00:48 4,3 C 3,9 C 3,3 C 90 % 1035,5 hPa 0,0 l/m 0 min 0 min 0 W/m 0,0 km/h (0 Bft) 97,87 %
06.02.2020 00:50 4,3 C 3,9 C 3,3 C 90 % 1035,4 hPa 0,0 l/m 0 min 0 min 0 W/m 3,2 km/h (1 Bft) 93,62 %
06.02.2020 00:52 4,3 C 3,9 C 3,3 C 90 % 1035,4 hPa 0,0 l/m 0 min 0 min 0 W/m 0,0 km/h (0 Bft) 97,83 %
06.02.2020 00:54 4,3 C 3,9 C 3,3 C 90 % 1035,4 hPa 0,0 l/m 0 min 0 min 0 W/m 0,0 km/h (0 Bft) 100,00 %
06.02.2020 00:56 4,3 C 3,9 C 3,3 C 90 % 1035,4 hPa 0,0 l/m 0 min 0 min 0 W/m 0,0 km/h (0 Bft) 100,00 %
06.02.2020 00:58 4,3 C 3,9 C 3,3 C 90 % 1035,4 hPa 0,0 l/m 0 min 0 min 0 W/m 3,2 km/h (1 Bft) 100,00 %
06.02.2020 01:00 4,3 C 3,9 C 3,3 C 90 % 1035,3 hPa 0,0 l/m 0 min 0 min 0 W/m 0,0 km/h (0 Bft) 100,00 %
06.02.2020 01:02 4,3 C 3,9 C 3,3 C 90 % 1035,3 hPa 0,0 l/m 0 min 0 min 0 W/m 0,0 km/h (0 Bft) 97,87 %
06.02.2020 01:04 4,3 C 3,9 C 3,3 C 90 % 1035,3 hPa 0,0 l/m 0 min 0 min 0 W/m 3,2 km/h (1 Bft) 100,00 %
06.02.2020 01:06 4,3 C 3,3 C 3,3 C 90 % 1035,3 hPa 0,0 l/m 0 min 0 min 0 W/m 6,4 km/h (2 Bft) 100,00 %
06.02.2020 01:08 4,3 C 3,3 C 3,3 C 90 % 1035,3 hPa 0,0 l/m 0 min 0 min 0 W/m 0,0 km/h (0 Bft) 100,00 %
06.02.2020 01:10 4,3 C 3,9 C 3,3 C 90 % 1035,3 hPa 0,0 l/m 0 min 0 min 0 W/m 0,0 km/h (0 Bft) 100,00 %
06.02.2020 01:12 4,3 C 3,9 C 3,3 C 90 % 1035,2 hPa 0,0 l/m 0 min 0 min 0 W/m 0,0 km/h (0 Bft) 97,87 %
06.02.2020 01:14 4,3 C 3,9 C 3,3 C 90 % 1035,3 hPa 0,0 l/m 0 min 0 min 0 W/m 0,0 km/h (0 Bft) 100,00 %
06.02.2020 01:16 4,3 C 3,9 C 3,3 C 90 % 1035,2 hPa 0,0 l/m 0 min 0 min 0 W/m 0,0 km/h (0 Bft) 100,00 %
06.02.2020 01:18 4,3 C 3,3 C 3,3 C 90 % 1035,1 hPa 0,0 l/m 0 min 0 min 0 W/m 0,0 km/h (0 Bft) 100,00 %
06.02.2020 01:20 4,3 C 3,3 C 3,3 C 90 % 1035,1 hPa 0,0 l/m 0 min 0 min 0 W/m 0,0 km/h (0 Bft) 100,00 %
06.02.2020 01:22 4,3 C 3,3 C 3,3 C 90 % 1035,0 hPa 0,0 l/m 0 min 0 min 0 W/m 0,0 km/h (0 Bft) 100,00 %
06.02.2020 01:24 4,3 C 3,9 C 3,3 C 90 % 1035,0 hPa 0,0 l/m 0 min 0 min 0 W/m 0,0 km/h (0 Bft) 100,00 %
06.02.2020 01:26 4,3 C 3,9 C 3,3 C 90 % 1034,9 hPa 0,0 l/m 0 min 0 min 0 W/m 3,2 km/h (1 Bft) 100,00 %
06.02.2020 01:28 4,3 C 3,9 C 3,3 C 90 % 1034,9 hPa 0,0 l/m 0 min 0 min 0 W/m 0,0 km/h (0 Bft) 100,00 %
06.02.2020 01:30 4,3 C 3,9 C 3,3 C 90 % 1034,9 hPa 0,0 l/m 0 min 0 min 0 W/m 0,0 km/h (0 Bft) 100,00 %
06.02.2020 01:32 4,3 C 3,9 C 3,3 C 90 % 1034,9 hPa 0,0 l/m 0 min 0 min 0 W/m 0,0 km/h (0 Bft) 100,00 %
06.02.2020 01:34 4,3 C 3,3 C 3,3 C 90 % 1034,9 hPa 0,0 l/m 0 min 0 min 0 W/m 0,0 km/h (0 Bft) 97,87 %
06.02.2020 01:36 4,2 C 3,3 C 3,3 C 90 % 1034,9 hPa 0,0 l/m 0 min 0 min 0 W/m 0,0 km/h (0 Bft) 100,00 %
06.02.2020 01:38 4,2 C 3,3 C 3,3 C 90 % 1034,8 hPa 0,0 l/m 0 min 0 min 0 W/m 0,0 km/h (0 Bft) 97,87 %
06.02.2020 01:40 4,2 C 3,9 C 3,3 C 90 % 1034,8 hPa 0,0 l/m 0 min 0 min 0 W/m 0,0 km/h (0 Bft) 100,00 %
06.02.2020 01:42 4,2 C 3,9 C 3,3 C 90 % 1034,8 hPa 0,0 l/m 0 min 0 min 0 W/m 9,7 km/h (2 Bft) 100,00 %
06.02.2020 01:44 4,2 C 3,9 C 3,3 C 90 % 1034,8 hPa 0,0 l/m 0 min 0 min 0 W/m 0,0 km/h (0 Bft) 100,00 %
06.02.2020 01:46 4,2 C 3,9 C 3,3 C 90 % 1034,8 hPa 0,0 l/m 0 min 0 min 0 W/m 6,4 km/h (2 Bft) 100,00 %
06.02.2020 01:48 4,2 C 3,9 C 3,3 C 90 % 1034,7 hPa 0,0 l/m 0 min 0 min 0 W/m 9,7 km/h (2 Bft) 76,60 %
06.02.2020 01:50 4,2 C 3,9 C 3,3 C 90 % 1034,8 hPa 0,0 l/m 0 min 0 min 0 W/m 6,4 km/h (2 Bft) 78,57 %
06.02.2020 01:52 4,2 C 3,9 C 3,3 C 90 % 1034,7 hPa 0,0 l/m 0 min 0 min 0 W/m 0,0 km/h (0 Bft) 100,00 %
06.02.2020 01:54 4,2 C 3,9 C 3,3 C 90 % 1034,7 hPa 0,0 l/m 0 min 0 min 0 W/m 6,4 km/h (2 Bft) 100,00 %
06.02.2020 01:56 4,2 C 3,9 C 3,3 C 90 % 1034,8 hPa 0,0 l/m 0 min 0 min 0 W/m 0,0 km/h (0 Bft) 100,00 %
06.02.2020 01:58 4,2 C 3,9 C 3,3 C 90 % 1034,7 hPa 0,0 l/m 0 min 0 min 0 W/m 0,0 km/h (0 Bft) 100,00 %
06.02.2020 02:00 4,2 C 3,9 C 3,3 C 90 % 1034,7 hPa 0,0 l/m 0 min 0 min 0 W/m 9,7 km/h (2 Bft) 100,00 %
06.02.2020 02:02 4,2 C 3,9 C 3,3 C 90 % 1034,6 hPa 0,0 l/m 0 min 0 min 0 W/m 0,0 km/h (0 Bft) 97,83 %
06.02.2020 02:04 4,2 C 3,9 C 3,3 C 91 % 1034,6 hPa 0,0 l/m 0 min 0 min 0 W/m 0,0 km/h (0 Bft) 100,00 %
06.02.2020 02:06 4,2 C 3,9 C 3,3 C 91 % 1034,6 hPa 0,0 l/m 0 min 0 min 0 W/m 0,0 km/h (0 Bft) 97,87 %
06.02.2020 02:08 4,2 C 3,9 C 3,3 C 91 % 1034,7 hPa 0,0 l/m 0 min 0 min 0 W/m 6,4 km/h (2 Bft) 97,87 %
06.02.2020 02:10 4,2 C 3,9 C 3,3 C 91 % 1034,7 hPa 0,0 l/m 0 min 0 min 0 W/m 0,0 km/h (0 Bft) 100,00 %
06.02.2020 02:12 4,2 C 3,9 C 3,3 C 91 % 1034,6 hPa 0,0 l/m 0 min 0 min 0 W/m 6,4 km/h (2 Bft) 100,00 %
06.02.2020 02:14 4,2 C 3,9 C 3,3 C 91 % 1034,6 hPa 0,0 l/m 0 min 0 min 0 W/m 9,7 km/h (2 Bft) 100,00 %
06.02.2020 02:16 4,2 C 3,9 C 3,3 C 91 % 1034,7 hPa 0,0 l/m 0 min 0 min 0 W/m 0,0 km/h (0 Bft) 100,00 %
06.02.2020 02:18 4,2 C 3,9 C 3,3 C 91 % 1034,7 hPa 0,0 l/m 0 min 0 min 0 W/m 0,0 km/h (0 Bft) 100,00 %
06.02.2020 02:20 4,2 C 3,9 C 3,3 C 91 % 1034,7 hPa 0,0 l/m 0 min 0 min 0 W/m 0,0 km/h (0 Bft) 100,00 %
06.02.2020 02:22 4,2 C 3,9 C 3,3 C 91 % 1034,6 hPa 0,0 l/m 0 min 0 min 0 W/m 0,0 km/h (0 Bft) 97,87 %
06.02.2020 02:24 4,2 C 3,9 C 3,3 C 91 % 1034,6 hPa 0,0 l/m 0 min 0 min 0 W/m 0,0 km/h (0 Bft) 97,87 %
06.02.2020 02:26 4,2 C 3,3 C 3,3 C 91 % 1034,7 hPa 0,0 l/m 0 min 0 min 0 W/m 3,2 km/h (1 Bft) 97,83 %
06.02.2020 02:28 4,2 C 3,3 C 3,3 C 91 % 1034,7 hPa 0,0 l/m 0 min 0 min 0 W/m 3,2 km/h (1 Bft) 97,87 %
06.02.2020 02:30 4,2 C 3,3 C 3,3 C 91 % 1034,7 hPa 0,0 l/m 0 min 0 min 0 W/m 6,4 km/h (2 Bft) 100,00 %
06.02.2020 02:32 4,2 C 3,3 C 3,3 C 91 % 1034,6 hPa 0,0 l/m 0 min 0 min 0 W/m 0,0 km/h (0 Bft) 100,00 %
06.02.2020 02:34 4,2 C 3,3 C 3,3 C 91 % 1034,6 hPa 0,0 l/m 0 min 0 min 0 W/m 0,0 km/h (0 Bft) 97,87 %
06.02.2020 02:36 4,2 C 3,3 C 3,3 C 91 % 1034,6 hPa 0,0 l/m 0 min 0 min 0 W/m 0,0 km/h (0 Bft) 97,87 %
06.02.2020 02:38 4,2 C 3,3 C 2,8 C 91 % 1034,6 hPa 0,0 l/m 0 min 0 min 0 W/m 6,4 km/h (2 Bft) 95,65 %
06.02.2020 02:40 4,2 C 3,3 C 2,8 C 91 % 1034,6 hPa 0,0 l/m 0 min 0 min 0 W/m 3,2 km/h (1 Bft) 97,87 %
06.02.2020 02:42 4,2 C 3,3 C 2,8 C 91 % 1034,6 hPa 0,0 l/m 0 min 0 min 0 W/m 3,2 km/h (1 Bft) 97,87 %
06.02.2020 02:44 4,2 C 3,3 C 2,8 C 91 % 1034,5 hPa 0,0 l/m 0 min 0 min 0 W/m 9,7 km/h (2 Bft) 95,74 %
06.02.2020 02:46 4,2 C 3,3 C 2,8 C 91 % 1034,6 hPa 0,0 l/m 0 min 0 min 0 W/m 3,2 km/h (1 Bft) 95,74 %
06.02.2020 02:48 4,2 C 3,3 C 2,8 C 91 % 1034,6 hPa 0,0 l/m 0 min 0 min 0 W/m 0,0 km/h (0 Bft) 91,49 %
06.02.2020 02:50 4,2 C 3,3 C 2,8 C 91 % 1034,6 hPa 0,0 l/m 0 min 0 min 0 W/m 0,0 km/h (0 Bft) 95,65 %
06.02.2020 02:52 4,2 C 3,3 C 2,8 C 91 % 1034,6 hPa 0,0 l/m 0 min 0 min 0 W/m 0,0 km/h (0 Bft) 91,49 %
06.02.2020 02:54 4,2 C 3,3 C 2,8 C 91 % 1034,6 hPa 0,0 l/m 0 min 0 min 0 W/m 0,0 km/h (0 Bft) 93,62 %
06.02.2020 02:56 4,1 C 3,3 C 2,8 C 91 % 1034,6 hPa 0,0 l/m 0 min 0 min 0 W/m 3,2 km/h (1 Bft) 95,74 %
06.02.2020 02:58 4,1 C 3,3 C 2,8 C 91 % 1034,6 hPa 0,0 l/m 0 min 0 min 0 W/m 0,0 km/h (0 Bft) 95,74 %
06.02.2020 03:00 4,1 C 3,3 C 2,8 C 91 % 1034,5 hPa 0,0 l/m 0 min 0 min 0 W/m 0,0 km/h (0 Bft) 93,48 %
06.02.2020 03:02 4,1 C 3,3 C 2,8 C 91 % 1034,5 hPa 0,0 l/m 0 min 0 min 0 W/m 3,2 km/h (1 Bft) 95,74 %
06.02.2020 03:04 4,1 C 3,3 C 2,8 C 91 % 1034,6 hPa 0,0 l/m 0 min 0 min 0 W/m 3,2 km/h (1 Bft) 97,87 %
06.02.2020 03:06 4,1 C 3,3 C 2,8 C 91 % 1034,6 hPa 0,0 l/m 0 min 0 min 0 W/m 0,0 km/h (0 Bft) 95,74 %
06.02.2020 03:08 4,1 C 3,3 C 2,8 C 91 % 1034,5 hPa 0,0 l/m 0 min 0 min 0 W/m 3,2 km/h (1 Bft) 93,62 %
06.02.2020 03:10 4,1 C 3,3 C 2,8 C 91 % 1034,5 hPa 0,0 l/m 0 min 0 min 0 W/m 3,2 km/h (1 Bft) 91,49 %
06.02.2020 03:12 4,1 C 3,3 C 2,8 C 91 % 1034,5 hPa 0,0 l/m 0 min 0 min 0 W/m 3,2 km/h (1 Bft) 91,30 %
06.02.2020 03:14 4,1 C 3,3 C 2,8 C 91 % 1034,5 hPa 0,0 l/m 0 min 0 min 0 W/m 0,0 km/h (0 Bft) 93,62 %
06.02.2020 03:16 4,1 C 3,3 C 2,8 C 91 % 1034,5 hPa 0,0 l/m 0 min 0 min 0 W/m 0,0 km/h (0 Bft) 93,62 %
06.02.2020 03:18 4,1 C 3,3 C 2,8 C 91 % 1034,4 hPa 0,0 l/m 0 min 0 min 0 W/m 0,0 km/h (0 Bft) 93,62 %
06.02.2020 03:20 4,1 C 3,3 C 2,8 C 91 % 1034,4 hPa 0,0 l/m 0 min 0 min 0 W/m 0,0 km/h (0 Bft) 93,62 %
06.02.2020 03:22 4,1 C 3,3 C 2,8 C 91 % 1034,4 hPa 0,0 l/m 0 min 0 min 0 W/m 0,0 km/h (0 Bft) 95,74 %
06.02.2020 03:24 4,1 C 3,3 C 2,8 C 91 % 1034,4 hPa 0,0 l/m 0 min 0 min 0 W/m 0,0 km/h (0 Bft) 95,65 %
06.02.2020 03:26 4,1 C 3,3 C 2,8 C 91 % 1034,4 hPa 0,0 l/m 0 min 0 min 0 W/m 0,0 km/h (0 Bft) 95,74 %
06.02.2020 03:28 4,0 C 2,8 C 2,8 C 91 % 1034,4 hPa 0,0 l/m 0 min 0 min 0 W/m 0,0 km/h (0 Bft) 95,74 %
06.02.2020 03:30 4,0 C 2,8 C 2,2 C 91 % 1034,4 hPa 0,0 l/m 0 min 0 min 0 W/m 0,0 km/h (0 Bft) 95,74 %
06.02.2020 03:32 4,0 C 2,8 C 2,2 C 91 % 1034,4 hPa 0,0 l/m 0 min 0 min 0 W/m 0,0 km/h (0 Bft) 97,87 %
06.02.2020 03:34 4,0 C 2,8 C 2,2 C 91 % 1034,3 hPa 0,0 l/m 0 min 0 min 0 W/m 0,0 km/h (0 Bft) 95,74 %
06.02.2020 03:36 4,0 C 2,8 C 2,2 C 91 % 1034,3 hPa 0,0 l/m 0 min 0 min 0 W/m 0,0 km/h (0 Bft) 95,65 %
06.02.2020 03:38 3,9 C 2,8 C 2,2 C 91 % 1034,3 hPa 0,0 l/m 0 min 0 min 0 W/m 0,0 km/h (0 Bft) 97,87 %
06.02.2020 03:40 3,9 C 3,3 C 2,2 C 91 % 1034,3 hPa 0,0 l/m 0 min 0 min 0 W/m 0,0 km/h (0 Bft) 95,74 %
06.02.2020 03:42 3,9 C 3,3 C 2,8 C 91 % 1034,2 hPa 0,0 l/m 0 min 0 min 0 W/m 0,0 km/h (0 Bft) 93,62 %
06.02.2020 03:44 3,9 C 3,3 C 2,8 C 91 % 1034,2 hPa 0,0 l/m 0 min 0 min 0 W/m 0,0 km/h (0 Bft) 97,87 %
06.02.2020 03:46 3,9 C 3,3 C 2,8 C 91 % 1034,2 hPa 0,0 l/m 0 min 0 min 0 W/m 0,0 km/h (0 Bft) 97,87 %
06.02.2020 03:48 3,9 C 2,8 C 2,2 C 91 % 1034,2 hPa 0,0 l/m 0 min 0 min 0 W/m 0,0 km/h (0 Bft) 97,83 %
06.02.2020 03:50 3,9 C 2,8 C 2,2 C 91 % 1034,2 hPa 0,0 l/m 0 min 0 min 0 W/m 0,0 km/h (0 Bft) 97,87 %
06.02.2020 03:52 3,9 C 2,8 C 2,2 C 91 % 1034,2 hPa 0,0 l/m 0 min 0 min 0 W/m 0,0 km/h (0 Bft) 97,87 %
06.02.2020 03:54 3,9 C 3,3 C 2,2 C 91 % 1034,2 hPa 0,0 l/m 0 min 0 min 0 W/m 0,0 km/h (0 Bft) 100,00 %
06.02.2020 03:56 3,9 C 2,8 C 2,2 C 91 % 1034,2 hPa 0,0 l/m 0 min 0 min 0 W/m 0,0 km/h (0 Bft) 97,87 %
06.02.2020 03:58 3,8 C 2,8 C 2,2 C 91 % 1034,2 hPa 0,0 l/m 0 min 0 min 0 W/m 0,0 km/h (0 Bft) 93,62 %
06.02.2020 04:00 3,8 C 2,8 C 2,2 C 91 % 1034,2 hPa 0,0 l/m 0 min 0 min 0 W/m 0,0 km/h (0 Bft) 97,83 %
06.02.2020 04:02 3,8 C 2,8 C 2,2 C 91 % 1034,2 hPa 0,0 l/m 0 min 0 min 0 W/m 0,0 km/h (0 Bft) 100,00 %
06.02.2020 04:04 3,8 C 2,8 C 2,2 C 91 % 1034,1 hPa 0,0 l/m 0 min 0 min 0 W/m 0,0 km/h (0 Bft) 97,92 %
06.02.2020 04:06 3,8 C 2,8 C 2,2 C 91 % 1034,1 hPa 0,0 l/m 0 min 0 min 0 W/m 0,0 km/h (0 Bft) 97,87 %
06.02.2020 04:08 3,8 C 2,8 C 2,2 C 91 % 1034,1 hPa 0,0 l/m 0 min 0 min 0 W/m 0,0 km/h (0 Bft) 95,74 %
06.02.2020 04:10 3,8 C 2,8 C 2,2 C 91 % 1034,2 hPa 0,0 l/m 0 min 0 min 0 W/m 0,0 km/h (0 Bft) 97,87 %
06.02.2020 04:12 3,8 C 2,8 C 2,2 C 91 % 1034,2 hPa 0,0 l/m 0 min 0 min 0 W/m 0,0 km/h (0 Bft) 100,00 %
06.02.2020 04:14 3,8 C 3,3 C 2,2 C 91 % 1034,1 hPa 0,0 l/m 0 min 0 min 0 W/m 0,0 km/h (0 Bft) 97,83 %
06.02.2020 04:16 3,8 C 3,3 C 2,8 C 91 % 1034,1 hPa 0,0 l/m 0 min 0 min 0 W/m 0,0 km/h (0 Bft) 100,00 %
06.02.2020 04:18 3,8 C 3,3 C 2,8 C 91 % 1034,0 hPa 0,0 l/m 0 min 0 min 0 W/m 3,2 km/h (1 Bft) 100,00 %
06.02.2020 04:20 3,8 C 3,3 C 2,8 C 91 % 1034,0 hPa 0,0 l/m 0 min 0 min 0 W/m 0,0 km/h (0 Bft) 100,00 %
06.02.2020 04:22 3,8 C 3,3 C 2,8 C 91 % 1034,0 hPa 0,0 l/m 0 min 0 min 0 W/m 3,2 km/h (1 Bft) 97,87 %
06.02.2020 04:24 3,8 C 3,3 C 2,8 C 91 % 1034,0 hPa 0,0 l/m 0 min 0 min 0 W/m 0,0 km/h (0 Bft) 100,00 %
06.02.2020 04:26 3,8 C 3,3 C 2,8 C 92 % 1034,0 hPa 0,0 l/m 0 min 0 min 0 W/m 3,2 km/h (1 Bft) 100,00 %
06.02.2020 04:28 3,8 C 3,3 C 2,8 C 92 % 1034,0 hPa 0,0 l/m 0 min 0 min 0 W/m 0,0 km/h (0 Bft) 100,00 %
06.02.2020 04:30 3,8 C 3,3 C 2,8 C 92 % 1034,0 hPa 0,0 l/m 0 min 0 min 0 W/m 0,0 km/h (0 Bft) 100,00 %
06.02.2020 04:32 3,8 C 3,3 C 2,8 C 92 % 1034,0 hPa 0,0 l/m 0 min 0 min 0 W/m 0,0 km/h (0 Bft) 100,00 %
06.02.2020 04:34 3,8 C 3,3 C 2,8 C 92 % 1034,0 hPa 0,0 l/m 0 min 0 min 0 W/m 0,0 km/h (0 Bft) 100,00 %
06.02.2020 04:36 3,8 C 3,3 C 2,8 C 92 % 1034,0 hPa 0,0 l/m 0 min 0 min 0 W/m 0,0 km/h (0 Bft) 100,00 %
06.02.2020 04:38 3,8 C 3,3 C 2,8 C 92 % 1034,0 hPa 0,0 l/m 0 min 0 min 0 W/m 3,2 km/h (1 Bft) 100,00 %
06.02.2020 04:40 3,8 C 3,3 C 2,8 C 92 % 1034,0 hPa 0,0 l/m 0 min 0 min 0 W/m 0,0 km/h (0 Bft) 100,00 %
06.02.2020 04:42 3,8 C 3,3 C 2,8 C 92 % 1033,9 hPa 0,0 l/m 0 min 0 min 0 W/m 0,0 km/h (0 Bft) 100,00 %
06.02.2020 04:44 3,7 C 2,8 C 2,8 C 92 % 1033,9 hPa 0,0 l/m 0 min 0 min 0 W/m 3,2 km/h (1 Bft) 100,00 %
06.02.2020 04:46 3,7 C 2,8 C 2,8 C 92 % 1033,9 hPa 0,0 l/m 0 min 0 min 0 W/m 6,4 km/h (2 Bft) 100,00 %
06.02.2020 04:48 3,7 C 2,8 C 2,2 C 92 % 1033,9 hPa 0,0 l/m 0 min 0 min 0 W/m 0,0 km/h (0 Bft) 100,00 %
06.02.2020 04:50 3,7 C 2,8 C 2,2 C 92 % 1033,8 hPa 0,0 l/m 0 min 0 min 0 W/m 6,4 km/h (2 Bft) 100,00 %
06.02.2020 04:52 3,7 C 2,8 C 2,2 C 92 % 1033,7 hPa 0,0 l/m 0 min 0 min 0 W/m 0,0 km/h (0 Bft) 97,87 %
06.02.2020 04:54 3,7 C 2,8 C 2,2 C 92 % 1033,8 hPa 0,0 l/m 0 min 0 min 0 W/m 0,0 km/h (0 Bft) 100,00 %
06.02.2020 04:56 3,7 C 2,2 C 1,7 C 92 % 1033,7 hPa 0,0 l/m 0 min 0 min 0 W/m 0,0 km/h (0 Bft) 100,00 %
06.02.2020 04:58 3,7 C 2,2 C 1,7 C 92 % 1033,7 hPa 0,0 l/m 0 min 0 min 0 W/m 3,2 km/h (1 Bft) 100,00 %
06.02.2020 05:00 3,6 C 2,2 C 1,7 C 92 % 1033,6 hPa 0,0 l/m 0 min 0 min 0 W/m 6,4 km/h (2 Bft) 97,83 %
06.02.2020 05:02 3,6 C 2,2 C 1,7 C 92 % 1033,5 hPa 0,0 l/m 0 min 0 min 0 W/m 3,2 km/h (1 Bft) 97,87 %
06.02.2020 05:04 3,6 C 2,2 C 1,7 C 92 % 1033,5 hPa 0,0 l/m 0 min 0 min 0 W/m 3,2 km/h (1 Bft) 97,87 %
06.02.2020 05:06 3,6 C 2,2 C 1,7 C 92 % 1033,6 hPa 0,0 l/m 0 min 0 min 0 W/m 0,0 km/h (0 Bft) 95,74 %
06.02.2020 05:08 3,5 C 2,2 C 1,7 C 92 % 1033,6 hPa 0,0 l/m 0 min 0 min 0 W/m 0,0 km/h (0 Bft) 97,83 %
06.02.2020 05:10 3,4 C 2,2 C 1,7 C 92 % 1033,6 hPa 0,0 l/m 0 min 0 min 0 W/m 0,0 km/h (0 Bft) 100,00 %
06.02.2020 05:12 3,4 C 2,2 C 1,7 C 92 % 1033,7 hPa 0,0 l/m 0 min 0 min 0 W/m 0,0 km/h (0 Bft) 98,28 %
06.02.2020 05:14 3,4 C 1,7 C 1,1 C 92 % 1033,7 hPa 0,0 l/m 0 min 0 min 0 W/m 0,0 km/h (0 Bft) 93,62 %
06.02.2020 05:16 3,4 C 1,7 C 1,1 C 92 % 1033,7 hPa 0,0 l/m 0 min 0 min 0 W/m 3,2 km/h (1 Bft) 97,87 %
06.02.2020 05:18 3,3 C 1,7 C 1,1 C 92 % 1033,7 hPa 0,0 l/m 0 min 0 min 0 W/m 0,0 km/h (0 Bft) 97,87 %
06.02.2020 05:20 3,3 C 1,7 C 1,1 C 92 % 1033,7 hPa 0,0 l/m 0 min 0 min 0 W/m 0,0 km/h (0 Bft) 97,87 %
06.02.2020 05:22 3,3 C 1,7 C 0,6 C 92 % 1033,7 hPa 0,0 l/m 0 min 0 min 0 W/m 0,0 km/h (0 Bft) 97,87 %
06.02.2020 05:24 3,3 C 1,1 C 0,6 C 92 % 1033,7 hPa 0,0 l/m 0 min 0 min 0 W/m 0,0 km/h (0 Bft) 97,83 %
06.02.2020 05:26 3,2 C 1,1 C 0,6 C 92 % 1033,7 hPa 0,0 l/m 0 min 0 min 0 W/m 0,0 km/h (0 Bft) 97,87 %
06.02.2020 05:28 3,2 C 1,1 C 0,6 C 91 % 1033,7 hPa 0,0 l/m 0 min 0 min 0 W/m 0,0 km/h (0 Bft) 97,87 %
06.02.2020 05:30 3,2 C 1,1 C 0,0 C 91 % 1033,8 hPa 0,0 l/m 0 min 0 min 0 W/m 0,0 km/h (0 Bft) 97,87 %
06.02.2020 05:32 3,1 C 1,1 C 0,0 C 91 % 1033,7 hPa 0,0 l/m 0 min 0 min 0 W/m 0,0 km/h (0 Bft) 97,87 %
06.02.2020 05:34 3,1 C 0,6 C 0,0 C 91 % 1033,8 hPa 0,0 l/m 0 min 0 min 0 W/m 0,0 km/h (0 Bft) 95,74 %
06.02.2020 05:36 3,0 C 0,6 C 0,0 C 91 % 1033,8 hPa 0,0 l/m 0 min 0 min 0 W/m 0,0 km/h (0 Bft) 95,65 %
06.02.2020 05:38 2,9 C 0,6 C 0,0 C 91 % 1033,8 hPa 0,0 l/m 0 min 0 min 0 W/m 0,0 km/h (0 Bft) 95,74 %
06.02.2020 05:40 2,9 C 0,6 C 0,0 C 91 % 1033,8 hPa 0,0 l/m 0 min 0 min 0 W/m 0,0 km/h (0 Bft) 97,87 %
06.02.2020 05:42 2,8 C 0,6 C -0,6 C 91 % 1033,7 hPa 0,0 l/m 0 min 0 min 0 W/m 0,0 km/h (0 Bft) 97,87 %
06.02.2020 05:44 2,8 C 0,6 C -0,6 C 91 % 1033,6 hPa 0,0 l/m 0 min 0 min 0 W/m 0,0 km/h (0 Bft) 97,87 %
06.02.2020 05:46 2,7 C 1,1 C -0,6 C 91 % 1033,6 hPa 0,0 l/m 0 min 0 min 0 W/m 0,0 km/h (0 Bft) 97,87 %
06.02.2020 05:48 2,7 C 1,1 C -0,6 C 91 % 1033,6 hPa 0,0 l/m 0 min 0 min 0 W/m 0,0 km/h (0 Bft) 97,83 %
06.02.2020 05:50 2,6 C 1,1 C -0,6 C 91 % 1033,4 hPa 0,0 l/m 0 min 0 min 0 W/m 0,0 km/h (0 Bft) 50,00 %
06.02.2020 05:52 2,6 C 1,1 C -0,6 C 91 % 1033,5 hPa 0,0 l/m 0 min 0 min 0 W/m 0,0 km/h (0 Bft) 93,62 %
06.02.2020 05:54 2,6 C 0,6 C -0,6 C 91 % 1033,5 hPa 0,0 l/m 0 min 0 min 0 W/m 0,0 km/h (0 Bft) 97,87 %
06.02.2020 05:56 2,5 C 0,6 C -0,6 C 91 % 1033,5 hPa 0,0 l/m 0 min 0 min 0 W/m 0,0 km/h (0 Bft) 97,87 %
06.02.2020 05:58 2,4 C 0,6 C -0,6 C 91 % 1033,4 hPa 0,0 l/m 0 min 0 min 0 W/m 0,0 km/h (0 Bft) 97,83 %
06.02.2020 06:00 2,4 C 0,6 C -0,6 C 91 % 1033,5 hPa 0,0 l/m 0 min 0 min 0 W/m 0,0 km/h (0 Bft) 97,87 %
06.02.2020 06:02 2,4 C 0,6 C -0,6 C 91 % 1033,5 hPa 0,0 l/m 0 min 0 min 0 W/m 0,0 km/h (0 Bft) 97,87 %
06.02.2020 06:04 2,3 C 0,6 C -0,6 C 91 % 1033,5 hPa 0,0 l/m 0 min 0 min 0 W/m 0,0 km/h (0 Bft) 97,87 %
06.02.2020 06:07 2,3 C 0,6 C -0,6 C 91 % 1033,4 hPa 0,0 l/m 0 min 0 min 0 W/m 0,0 km/h (0 Bft) 97,87 %
06.02.2020 06:08 2,2 C 0,6 C -0,6 C 91 % 1033,4 hPa 0,0 l/m 0 min 0 min 0 W/m 0,0 km/h (0 Bft) 97,06 %
06.02.2020 06:10 2,2 C 0,6 C -0,6 C 91 % 1033,4 hPa 0,0 l/m 0 min 0 min 0 W/m 0,0 km/h (0 Bft) 97,83 %
06.02.2020 06:12 2,2 C 0,0 C -0,6 C 91 % 1033,4 hPa 0,0 l/m 0 min 0 min 0 W/m 0,0 km/h (0 Bft) 97,87 %
06.02.2020 06:14 2,1 C 0,0 C -1,1 C 91 % 1033,4 hPa 0,0 l/m 0 min 0 min 0 W/m 0,0 km/h (0 Bft) 97,87 %
06.02.2020 06:16 2,1 C 0,0 C -1,1 C 91 % 1033,3 hPa 0,0 l/m 0 min 0 min 0 W/m 0,0 km/h (0 Bft) 97,87 %
06.02.2020 06:18 2,0 C 0,0 C -1,1 C 91 % 1033,3 hPa 0,0 l/m 0 min 0 min 0 W/m 0,0 km/h (0 Bft) 97,87 %
06.02.2020 06:20 1,9 C 0,6 C -1,1 C 91 % 1033,3 hPa 0,0 l/m 0 min 0 min 0 W/m 0,0 km/h (0 Bft) 97,87 %
06.02.2020 06:22 1,9 C 0,6 C -1,1 C 91 % 1033,3 hPa 0,0 l/m 0 min 0 min 0 W/m 0,0 km/h (0 Bft) 95,65 %
06.02.2020 06:24 1,9 C 0,6 C -1,1 C 91 % 1033,3 hPa 0,0 l/m 0 min 0 min 0 W/m 0,0 km/h (0 Bft) 95,74 %
06.02.2020 06:26 1,9 C 0,6 C -1,1 C 91 % 1033,3 hPa 0,0 l/m 0 min 0 min 0 W/m 0,0 km/h (0 Bft) 97,87 %
06.02.2020 06:28 1,8 C 0,6 C -1,1 C 91 % 1033,3 hPa 0,0 l/m 0 min 0 min 0 W/m 0,0 km/h (0 Bft) 95,74 %
06.02.2020 06:30 1,8 C 0,6 C -0,6 C 91 % 1033,2 hPa 0,0 l/m 0 min 0 min 0 W/m 0,0 km/h (0 Bft) 97,87 %
06.02.2020 06:32 1,8 C 0,6 C -0,6 C 91 % 1033,2 hPa 0,0 l/m 0 min 0 min 0 W/m 0,0 km/h (0 Bft) 97,87 %
06.02.2020 06:34 1,8 C 0,6 C -0,6 C 92 % 1033,2 hPa 0,0 l/m 0 min 0 min 0 W/m 0,0 km/h (0 Bft) 100,00 %
06.02.2020 06:36 1,8 C 0,6 C -0,6 C 92 % 1033,1 hPa 0,0 l/m 0 min 0 min 0 W/m 0,0 km/h (0 Bft) 100,00 %
06.02.2020 06:38 1,7 C 0,6 C -0,6 C 92 % 1033,1 hPa 0,0 l/m 0 min 0 min 0 W/m 0,0 km/h (0 Bft) 100,00 %
06.02.2020 06:40 1,7 C 0,6 C -0,6 C 92 % 1033,1 hPa 0,0 l/m 0 min 0 min 0 W/m 0,0 km/h (0 Bft) 97,87 %
06.02.2020 06:42 1,7 C 1,1 C 0,0 C 92 % 1033,0 hPa 0,0 l/m 0 min 0 min 0 W/m 3,2 km/h (1 Bft) 100,00 %
06.02.2020 06:44 1,7 C 1,1 C 0,0 C 92 % 1033,0 hPa 0,0 l/m 0 min 0 min 0 W/m 0,0 km/h (0 Bft) 100,00 %
06.02.2020 06:46 1,7 C 0,6 C 0,0 C 92 % 1033,0 hPa 0,0 l/m 0 min 0 min 0 W/m 0,0 km/h (0 Bft) 100,00 %
06.02.2020 06:48 1,7 C 0,6 C 0,0 C 93 % 1033,0 hPa 0,0 l/m 0 min 0 min 0 W/m 0,0 km/h (0 Bft) 97,87 %
06.02.2020 06:50 1,7 C 0,6 C 0,0 C 93 % 1033,1 hPa 0,0 l/m 0 min 0 min 0 W/m 0,0 km/h (0 Bft) 97,87 %
06.02.2020 06:52 1,7 C 0,6 C -0,6 C 93 % 1033,1 hPa 0,0 l/m 0 min 0 min 0 W/m 0,0 km/h (0 Bft) 95,74 %
06.02.2020 06:54 1,7 C 0,6 C -0,6 C 93 % 1033,1 hPa 0,0 l/m 0 min 0 min 0 W/m 0,0 km/h (0 Bft) 100,00 %
06.02.2020 06:56 1,7 C 0,6 C -0,6 C 93 % 1033,1 hPa 0,0 l/m 0 min 0 min 0 W/m 0,0 km/h (0 Bft) 95,65 %
06.02.2020 06:58 1,7 C 0,6 C -0,6 C 93 % 1033,0 hPa 0,0 l/m 0 min 0 min 0 W/m 0,0 km/h (0 Bft) 97,87 %
06.02.2020 07:00 1,6 C 0,6 C -0,6 C 93 % 1033,1 hPa 0,0 l/m 0 min 0 min 0 W/m 0,0 km/h (0 Bft) 97,87 %
06.02.2020 07:02 1,6 C 0,0 C -0,6 C 93 % 1033,2 hPa 0,0 l/m 0 min 0 min 0 W/m 0,0 km/h (0 Bft) 97,87 %
06.02.2020 07:04 1,6 C 0,0 C -1,1 C 93 % 1033,2 hPa 0,0 l/m 0 min 0 min 0 W/m 0,0 km/h (0 Bft) 97,87 %
06.02.2020 07:06 1,6 C 0,0 C -1,1 C 93 % 1033,2 hPa 0,0 l/m 0 min 0 min 0 W/m 0,0 km/h (0 Bft) 97,87 %
06.02.2020 07:08 1,6 C 0,0 C -1,1 C 93 % 1033,3 hPa 0,0 l/m 0 min 0 min 0 W/m 0,0 km/h (0 Bft) 95,65 %
06.02.2020 07:10 1,6 C -0,6 C -1,1 C 93 % 1033,3 hPa 0,0 l/m 0 min 0 min 0 W/m 0,0 km/h (0 Bft) 95,74 %
06.02.2020 07:12 1,5 C -0,6 C -1,1 C 93 % 1033,2 hPa 0,0 l/m 0 min 0 min 0 W/m 0,0 km/h (0 Bft) 97,87 %
06.02.2020 07:14 1,5 C -0,6 C -1,1 C 93 % 1033,2 hPa 0,0 l/m 0 min 0 min 0 W/m 0,0 km/h (0 Bft) 97,87 %
06.02.2020 07:16 1,4 C -0,6 C -1,1 C 93 % 1033,2 hPa 0,0 l/m 0 min 0 min 0 W/m 0,0 km/h (0 Bft) 95,74 %
06.02.2020 07:18 1,4 C -0,6 C -1,1 C 93 % 1033,2 hPa 0,0 l/m 0 min 0 min 0 W/m 0,0 km/h (0 Bft) 93,62 %
06.02.2020 07:20 1,4 C -0,6 C -1,1 C 93 % 1033,2 hPa 0,0 l/m 0 min 0 min 0 W/m 0,0 km/h (0 Bft) 95,65 %
06.02.2020 07:22 1,3 C -0,6 C -1,1 C 93 % 1033,2 hPa 0,0 l/m 0 min 0 min 0 W/m 0,0 km/h (0 Bft) 95,74 %
06.02.2020 07:24 1,3 C 0,0 C -1,1 C 93 % 1033,2 hPa 0,0 l/m 0 min 0 min 0 W/m 0,0 km/h (0 Bft) 93,62 %
06.02.2020 07:26 1,3 C 0,0 C -1,1 C 93 % 1033,2 hPa 0,0 l/m 0 min 0 min 0 W/m 0,0 km/h (0 Bft) 95,74 %
06.02.2020 07:28 1,3 C 0,0 C -1,1 C 93 % 1033,2 hPa 0,0 l/m 0 min 0 min 0 W/m 0,0 km/h (0 Bft) 95,74 %
06.02.2020 07:30 1,2 C 0,6 C -1,1 C 93 % 1033,1 hPa 0,0 l/m 0 min 0 min 0 W/m 0,0 km/h (0 Bft) 93,62 %
06.02.2020 07:32 1,2 C 0,6 C -1,1 C 93 % 1033,2 hPa 0,0 l/m 0 min 0 min 0 W/m 0,0 km/h (0 Bft) 97,83 %
06.02.2020 07:34 1,2 C 0,0 C -1,1 C 93 % 1033,2 hPa 0,0 l/m 0 min 0 min 0 W/m 0,0 km/h (0 Bft) 97,87 %
06.02.2020 07:36 1,2 C 0,0 C -1,1 C 93 % 1033,2 hPa 0,0 l/m 0 min 0 min 0 W/m 0,0 km/h (0 Bft) 97,87 %
06.02.2020 07:38 1,1 C 0,0 C -1,1 C 93 % 1033,2 hPa 0,0 l/m 0 min 0 min 0 W/m 0,0 km/h (0 Bft) 95,74 %
06.02.2020 07:40 1,1 C 0,0 C -1,1 C 93 % 1033,3 hPa 0,0 l/m 0 min 0 min 0 W/m 0,0 km/h (0 Bft) 95,74 %
06.02.2020 07:42 1,1 C 0,0 C -1,1 C 93 % 1033,2 hPa 0,0 l/m 0 min 0 min 0 W/m 0,0 km/h (0 Bft) 97,87 %
06.02.2020 07:44 1,1 C 0,0 C -1,1 C 93 % 1033,1 hPa 0,0 l/m 0 min 0 min 0 W/m 0,0 km/h (0 Bft) 93,48 %
06.02.2020 07:46 1,1 C 0,6 C -1,1 C 93 % 1033,2 hPa 0,0 l/m 0 min 0 min 0 W/m 0,0 km/h (0 Bft) 97,87 %
06.02.2020 07:48 1,1 C 0,0 C -1,1 C 93 % 1033,1 hPa 0,0 l/m 0 min 0 min 0 W/m 0,0 km/h (0 Bft) 97,87 %
06.02.2020 07:50 1,1 C 0,6 C -1,1 C 93 % 1033,2 hPa 0,0 l/m 0 min 0 min 0 W/m 0,0 km/h (0 Bft) 95,74 %
06.02.2020 07:52 1,1 C 0,0 C -1,7 C 93 % 1033,2 hPa 0,0 l/m 0 min 0 min 0 W/m 0,0 km/h (0 Bft) 97,87 %
06.02.2020 07:54 1,1 C 0,0 C -1,7 C 93 % 1033,2 hPa 0,0 l/m 0 min 0 min 0 W/m 0,0 km/h (0 Bft) 97,83 %
06.02.2020 07:56 1,0 C 0,0 C -1,7 C 93 % 1033,2 hPa 0,0 l/m 0 min 0 min 0 W/m 0,0 km/h (0 Bft) 95,74 %
06.02.2020 07:58 1,0 C 0,0 C -1,7 C 93 % 1033,3 hPa 0,0 l/m 0 min 0 min 0 W/m 0,0 km/h (0 Bft) 97,87 %
06.02.2020 08:00 1,0 C -0,6 C -1,7 C 93 % 1033,2 hPa 0,0 l/m 0 min 0 min 0 W/m 0,0 km/h (0 Bft) 97,87 %
06.02.2020 08:02 1,0 C 0,0 C -1,7 C 93 % 1033,2 hPa 0,0 l/m 0 min 0 min 0 W/m 0,0 km/h (0 Bft) 97,87 %
06.02.2020 08:04 0,9 C -0,6 C -1,7 C 93 % 1033,1 hPa 0,0 l/m 0 min 0 min 0 W/m 0,0 km/h (0 Bft) 97,87 %
06.02.2020 08:06 0,9 C -0,6 C -1,7 C 93 % 1033,1 hPa 0,0 l/m 0 min 0 min 3 W/m 0,0 km/h (0 Bft) 97,83 %
06.02.2020 08:08 0,9 C -0,6 C -1,7 C 93 % 1033,1 hPa 0,0 l/m 0 min 0 min 5 W/m 0,0 km/h (0 Bft) 97,87 %
06.02.2020 08:10 0,9 C -0,6 C -1,7 C 93 % 1033,1 hPa 0,0 l/m 0 min 0 min 5 W/m 0,0 km/h (0 Bft) 97,87 %
06.02.2020 08:12 0,9 C 0,0 C -1,7 C 93 % 1033,1 hPa 0,0 l/m 0 min 0 min 5 W/m 0,0 km/h (0 Bft) 97,87 %
06.02.2020 08:14 0,8 C -0,6 C -1,7 C 93 % 1033,2 hPa 0,0 l/m 0 min 0 min 7 W/m 0,0 km/h (0 Bft) 95,74 %
06.02.2020 08:16 0,8 C -0,6 C -1,7 C 93 % 1033,2 hPa 0,0 l/m 0 min 0 min 7 W/m 0,0 km/h (0 Bft) 97,87 %
06.02.2020 08:18 0,8 C -0,6 C -1,7 C 93 % 1033,2 hPa 0,0 l/m 0 min 0 min 8 W/m 0,0 km/h (0 Bft) 97,83 %
06.02.2020 08:20 0,8 C -0,6 C -1,7 C 93 % 1033,2 hPa 0,0 l/m 0 min 0 min 9 W/m 0,0 km/h (0 Bft) 97,87 %
06.02.2020 08:22 0,8 C -0,6 C -1,7 C 93 % 1033,2 hPa 0,0 l/m 0 min 0 min 9 W/m 0,0 km/h (0 Bft) 97,87 %
06.02.2020 08:24 0,7 C -0,6 C -1,7 C 93 % 1033,2 hPa 0,0 l/m 0 min 0 min 11 W/m 0,0 km/h (0 Bft) 97,87 %
06.02.2020 08:26 0,7 C 0,0 C -1,7 C 93 % 1033,2 hPa 0,0 l/m 0 min 0 min 11 W/m 0,0 km/h (0 Bft) 97,87 %
06.02.2020 08:28 0,7 C 0,0 C -1,7 C 94 % 1033,1 hPa 0,0 l/m 0 min 0 min 12 W/m 0,0 km/h (0 Bft) 100,00 %
06.02.2020 08:30 0,7 C 0,0 C -1,7 C 94 % 1033,2 hPa 0,0 l/m 0 min 0 min 14 W/m 0,0 km/h (0 Bft) 100,00 %
06.02.2020 08:32 0,6 C 0,0 C -1,7 C 94 % 1033,2 hPa 0,0 l/m 0 min 0 min 14 W/m 0,0 km/h (0 Bft) 100,00 %
06.02.2020 08:34 0,6 C 0,0 C -1,7 C 94 % 1033,2 hPa 0,0 l/m 0 min 0 min 16 W/m 0,0 km/h (0 Bft) 97,87 %
06.02.2020 08:36 0,6 C 0,0 C -1,7 C 94 % 1033,2 hPa 0,0 l/m 0 min 0 min 17 W/m 0,0 km/h (0 Bft) 97,87 %
06.02.2020 08:38 0,6 C 0,0 C -1,7 C 93 % 1033,2 hPa 0,0 l/m 0 min 0 min 18 W/m 0,0 km/h (0 Bft) 97,87 %
06.02.2020 08:40 0,6 C 0,0 C -1,7 C 94 % 1033,2 hPa 0,0 l/m 0 min 0 min 19 W/m 0,0 km/h (0 Bft) 95,74 %
06.02.2020 08:42 0,6 C 0,0 C -1,7 C 94 % 1033,2 hPa 0,0 l/m 0 min 0 min 20 W/m 0,0 km/h (0 Bft) 95,65 %
06.02.2020 08:44 0,6 C 0,6 C -1,1 C 94 % 1033,2 hPa 0,0 l/m 0 min 0 min 21 W/m 0,0 km/h (0 Bft) 97,87 %
06.02.2020 08:46 0,6 C 0,6 C -1,1 C 94 % 1033,2 hPa 0,0 l/m 0 min 0 min 21 W/m 0,0 km/h (0 Bft) 95,74 %
06.02.2020 08:48 0,6 C 0,6 C -1,1 C 94 % 1033,2 hPa 0,0 l/m 0 min 0 min 22 W/m 0,0 km/h (0 Bft) 95,74 %
06.02.2020 08:50 0,6 C 0,6 C -1,1 C 94 % 1033,3 hPa 0,0 l/m 0 min 0 min 23 W/m 0,0 km/h (0 Bft) 97,87 %
06.02.2020 08:52 0,6 C 0,6 C -1,1 C 94 % 1033,3 hPa 0,0 l/m 0 min 0 min 24 W/m 0,0 km/h (0 Bft) 95,65 %
06.02.2020 08:54 0,6 C 0,6 C -1,1 C 94 % 1033,3 hPa 0,0 l/m 0 min 0 min 25 W/m 0,0 km/h (0 Bft) 95,74 %
06.02.2020 08:56 0,6 C 0,6 C -1,1 C 94 % 1033,2 hPa 0,0 l/m 0 min 0 min 26 W/m 0,0 km/h (0 Bft) 95,74 %
06.02.2020 08:58 0,6 C 0,6 C -1,1 C 94 % 1033,3 hPa 0,0 l/m 0 min 0 min 26 W/m 0,0 km/h (0 Bft) 95,74 %
06.02.2020 09:00 0,6 C 0,6 C -0,6 C 94 % 1033,2 hPa 0,0 l/m 0 min 0 min 27 W/m 0,0 km/h (0 Bft) 93,62 %
06.02.2020 09:02 0,6 C 1,1 C -0,6 C 94 % 1033,2 hPa 0,0 l/m 0 min 0 min 26 W/m 0,0 km/h (0 Bft) 95,74 %
06.02.2020 09:04 0,7 C 1,1 C -0,6 C 94 % 1033,3 hPa 0,0 l/m 0 min 0 min 26 W/m 0,0 km/h (0 Bft) 93,48 %
06.02.2020 09:06 0,7 C 1,1 C -0,6 C 94 % 1033,3 hPa 0,0 l/m 0 min 0 min 29 W/m 0,0 km/h (0 Bft) 95,74 %
06.02.2020 09:08 0,7 C 1,1 C -0,6 C 94 % 1033,4 hPa 0,0 l/m 0 min 0 min 32 W/m 0,0 km/h (0 Bft) 93,62 %
06.02.2020 09:10 0,7 C 1,1 C -0,6 C 94 % 1033,4 hPa 0,0 l/m 0 min 0 min 35 W/m 0,0 km/h (0 Bft) 95,74 %
06.02.2020 09:12 0,8 C 1,1 C -0,6 C 94 % 1033,4 hPa 0,0 l/m 0 min 0 min 35 W/m 0,0 km/h (0 Bft) 95,74 %
06.02.2020 09:14 0,8 C 1,1 C -0,6 C 94 % 1033,3 hPa 0,0 l/m 0 min 0 min 36 W/m 0,0 km/h (0 Bft) 95,74 %
06.02.2020 09:16 0,8 C 1,1 C -0,6 C 94 % 1033,3 hPa 0,0 l/m 0 min 0 min 41 W/m 0,0 km/h (0 Bft) 95,65 %
06.02.2020 09:18 0,8 C 1,1 C 0,0 C 95 % 1033,4 hPa 0,0 l/m 0 min 0 min 50 W/m 0,0 km/h (0 Bft) 95,74 %
06.02.2020 09:20 0,8 C 1,7 C 0,0 C 95 % 1033,5 hPa 0,0 l/m 0 min 0 min 58 W/m 0,0 km/h (0 Bft) 95,74 %
06.02.2020 09:22 0,9 C 1,7 C 0,0 C 95 % 1033,4 hPa 0,0 l/m 0 min 0 min 62 W/m 0,0 km/h (0 Bft) 97,87 %
06.02.2020 09:24 0,9 C 1,7 C 0,0 C 95 % 1033,4 hPa 0,0 l/m 0 min 0 min 58 W/m 0,0 km/h (0 Bft) 100,00 %
06.02.2020 09:26 0,9 C 1,7 C 0,6 C 95 % 1033,5 hPa 0,0 l/m 0 min 0 min 57 W/m 0,0 km/h (0 Bft) 100,00 %
06.02.2020 09:28 0,9 C 2,2 C 0,6 C 95 % 1033,5 hPa 0,0 l/m 0 min 0 min 65 W/m 0,0 km/h (0 Bft) 100,00 %
06.02.2020 09:30 1,0 C 2,2 C 0,6 C 95 % 1033,5 hPa 0,0 l/m 0 min 0 min 70 W/m 0,0 km/h (0 Bft) 97,87 %
06.02.2020 09:32 1,0 C 2,2 C 1,1 C 95 % 1033,5 hPa 0,0 l/m 0 min 0 min 69 W/m 0,0 km/h (0 Bft) 100,00 %
06.02.2020 09:34 1,1 C 2,8 C 1,1 C 95 % 1033,5 hPa 0,0 l/m 0 min 0 min 70 W/m 0,0 km/h (0 Bft) 100,00 %
06.02.2020 09:36 1,1 C 2,8 C 1,7 C 95 % 1033,5 hPa 0,0 l/m 0 min 0 min 70 W/m 0,0 km/h (0 Bft) 100,00 %
06.02.2020 09:38 1,2 C 2,8 C 1,7 C 95 % 1033,6 hPa 0,0 l/m 0 min 0 min 71 W/m 0,0 km/h (0 Bft) 100,00 %
06.02.2020 09:40 1,2 C 2,8 C 1,7 C 95 % 1033,5 hPa 0,0 l/m 0 min 0 min 68 W/m 0,0 km/h (0 Bft) 97,87 %
06.02.2020 09:42 1,3 C 2,8 C 1,7 C 96 % 1033,5 hPa 0,0 l/m 0 min 0 min 69 W/m 0,0 km/h (0 Bft) 100,00 %
06.02.2020 09:44 1,4 C 2,8 C 2,2 C 96 % 1033,5 hPa 0,0 l/m 0 min 0 min 69 W/m 0,0 km/h (0 Bft) 100,00 %
06.02.2020 09:46 1,4 C 3,3 C 2,2 C 96 % 1033,5 hPa 0,0 l/m 0 min 0 min 70 W/m 0,0 km/h (0 Bft) 100,00 %
06.02.2020 09:48 1,5 C 3,3 C 2,2 C 96 % 1033,5 hPa 0,0 l/m 0 min 0 min 68 W/m 0,0 km/h (0 Bft) 100,00 %
06.02.2020 09:50 1,6 C 3,3 C 2,2 C 96 % 1033,5 hPa 0,0 l/m 0 min 0 min 68 W/m 0,0 km/h (0 Bft) 100,00 %
06.02.2020 09:52 1,7 C 3,3 C 2,2 C 96 % 1033,5 hPa 0,0 l/m 0 min 0 min 68 W/m 0,0 km/h (0 Bft) 100,00 %
06.02.2020 09:54 1,8 C 3,3 C 2,2 C 96 % 1033,4 hPa 0,0 l/m 0 min 0 min 68 W/m 0,0 km/h (0 Bft) 100,00 %
06.02.2020 09:56 1,8 C 3,3 C 2,2 C 96 % 1033,4 hPa 0,0 l/m 0 min 0 min 65 W/m 3,2 km/h (1 Bft) 100,00 %
06.02.2020 09:58 2,0 C 3,3 C 2,8 C 96 % 1033,4 hPa 0,0 l/m 0 min 0 min 69 W/m 0,0 km/h (0 Bft) 100,00 %
06.02.2020 10:00 2,1 C 3,3 C 2,8 C 96 % 1033,4 hPa 0,0 l/m 0 min 0 min 70 W/m 3,2 km/h (1 Bft) 100,00 %
06.02.2020 10:02 2,3 C 3,3 C 2,8 C 96 % 1033,4 hPa 0,0 l/m 0 min 0 min 69 W/m 3,2 km/h (1 Bft) 100,00 %
06.02.2020 10:04 2,4 C 3,3 C 2,8 C 96 % 1033,4 hPa 0,0 l/m 0 min 0 min 70 W/m 6,4 km/h (2 Bft) 97,87 %
06.02.2020 10:06 2,4 C 3,3 C 2,8 C 96 % 1033,5 hPa 0,0 l/m 0 min 0 min 70 W/m 0,0 km/h (0 Bft) 97,87 %
06.02.2020 10:08 2,6 C 3,3 C 2,8 C 96 % 1033,5 hPa 0,0 l/m 0 min 0 min 67 W/m 0,0 km/h (0 Bft) 100,00 %
06.02.2020 10:10 2,6 C 3,3 C 2,8 C 96 % 1033,4 hPa 0,0 l/m 0 min 0 min 66 W/m 3,2 km/h (1 Bft) 100,00 %
06.02.2020 10:12 2,6 C 3,3 C 2,8 C 96 % 1033,4 hPa 0,0 l/m 0 min 0 min 69 W/m 0,0 km/h (0 Bft) 97,87 %
06.02.2020 10:14 2,7 C 3,3 C 2,8 C 96 % 1033,4 hPa 0,0 l/m 0 min 0 min 68 W/m 0,0 km/h (0 Bft) 100,00 %
06.02.2020 10:16 2,7 C 3,9 C 2,8 C 96 % 1033,4 hPa 0,0 l/m 0 min 0 min 67 W/m 0,0 km/h (0 Bft) 97,87 %
06.02.2020 10:18 2,8 C 3,9 C 2,8 C 96 % 1033,3 hPa 0,0 l/m 0 min 0 min 69 W/m 0,0 km/h (0 Bft) 97,87 %
06.02.2020 10:20 2,8 C 3,9 C 2,8 C 96 % 1033,3 hPa 0,0 l/m 0 min 0 min 73 W/m 3,2 km/h (1 Bft) 100,00 %
06.02.2020 10:22 2,9 C 3,9 C 2,8 C 96 % 1033,4 hPa 0,0 l/m 0 min 0 min 73 W/m 6,4 km/h (2 Bft) 97,87 %
06.02.2020 10:24 3,0 C 3,9 C 2,8 C 96 % 1033,4 hPa 0,0 l/m 0 min 0 min 70 W/m 3,2 km/h (1 Bft) 100,00 %
06.02.2020 10:26 3,0 C 3,9 C 3,3 C 96 % 1033,4 hPa 0,0 l/m 0 min 0 min 73 W/m 0,0 km/h (0 Bft) 100,00 %
06.02.2020 10:28 3,1 C 3,9 C 3,3 C 96 % 1033,4 hPa 0,0 l/m 0 min 0 min 79 W/m 0,0 km/h (0 Bft) 100,00 %
06.02.2020 10:30 3,1 C 3,9 C 3,3 C 96 % 1033,4 hPa 0,0 l/m 0 min 0 min 81 W/m 0,0 km/h (0 Bft) 100,00 %
06.02.2020 10:32 3,2 C 3,9 C 3,3 C 96 % 1033,5 hPa 0,0 l/m 0 min 0 min 80 W/m 0,0 km/h (0 Bft) 97,87 %
06.02.2020 10:34 3,3 C 3,9 C 3,3 C 96 % 1033,4 hPa 0,0 l/m 0 min 0 min 78 W/m 3,2 km/h (1 Bft) 97,87 %
06.02.2020 10:36 3,3 C 3,9 C 3,3 C 96 % 1033,4 hPa 0,0 l/m 0 min 0 min 77 W/m 0,0 km/h (0 Bft) 95,65 %
06.02.2020 10:38 3,3 C 3,9 C 3,3 C 96 % 1033,4 hPa 0,0 l/m 0 min 0 min 80 W/m 3,2 km/h (1 Bft) 100,00 %
06.02.2020 10:40 3,3 C 3,9 C 3,3 C 96 % 1033,5 hPa 0,0 l/m 0 min 0 min 77 W/m 3,2 km/h (1 Bft) 97,87 %
06.02.2020 10:42 3,4 C 3,9 C 3,3 C 96 % 1033,5 hPa 0,0 l/m 0 min 0 min 75 W/m 3,2 km/h (1 Bft) 100,00 %
06.02.2020 10:44 3,4 C 3,9 C 3,3 C 96 % 1033,5 hPa 0,0 l/m 0 min 0 min 76 W/m 0,0 km/h (0 Bft) 95,74 %
06.02.2020 10:46 3,4 C 3,9 C 3,3 C 96 % 1033,5 hPa 0,0 l/m 0 min 0 min 77 W/m 0,0 km/h (0 Bft) 95,74 %
06.02.2020 10:48 3,5 C 4,4 C 3,3 C 96 % 1033,5 hPa 0,0 l/m 0 min 0 min 77 W/m 0,0 km/h (0 Bft) 97,83 %
06.02.2020 10:50 3,6 C 4,4 C 3,3 C 96 % 1033,5 hPa 0,0 l/m 0 min 0 min 77 W/m 0,0 km/h (0 Bft) 95,74 %
06.02.2020 10:52 3,6 C 4,4 C 3,3 C 96 % 1033,6 hPa 0,0 l/m 0 min 0 min 76 W/m 0,0 km/h (0 Bft) 97,87 %
06.02.2020 10:54 3,6 C 4,4 C 3,9 C 96 % 1033,6 hPa 0,0 l/m 0 min 0 min 74 W/m 0,0 km/h (0 Bft) 97,87 %
06.02.2020 10:56 3,6 C 4,4 C 3,9 C 96 % 1033,7 hPa 0,0 l/m 0 min 0 min 72 W/m 0,0 km/h (0 Bft) 97,87 %
06.02.2020 10:58 3,7 C 4,4 C 3,9 C 96 % 1033,6 hPa 0,0 l/m 0 min 0 min 67 W/m 0,0 km/h (0 Bft) 95,74 %
06.02.2020 11:00 3,7 C 4,4 C 3,9 C 96 % 1033,5 hPa 0,0 l/m 0 min 0 min 66 W/m 0,0 km/h (0 Bft) 95,65 %
06.02.2020 11:02 3,7 C 4,4 C 3,9 C 96 % 1033,5 hPa 0,0 l/m 0 min 0 min 68 W/m 0,0 km/h (0 Bft) 95,74 %
06.02.2020 11:04 3,8 C 4,4 C 3,9 C 96 % 1033,6 hPa 0,0 l/m 0 min 0 min 70 W/m 0,0 km/h (0 Bft) 93,62 %
06.02.2020 11:06 3,8 C 4,4 C 3,9 C 95 % 1033,5 hPa 0,0 l/m 0 min 0 min 73 W/m 0,0 km/h (0 Bft) 93,62 %
06.02.2020 11:08 3,8 C 4,4 C 3,9 C 95 % 1033,5 hPa 0,0 l/m 0 min 0 min 77 W/m 0,0 km/h (0 Bft) 93,62 %
06.02.2020 11:10 3,8 C 4,4 C 3,9 C 95 % 1033,5 hPa 0,0 l/m 0 min 0 min 80 W/m 0,0 km/h (0 Bft) 93,62 %
06.02.2020 11:12 3,9 C 4,4 C 3,9 C 95 % 1033,6 hPa 0,0 l/m 0 min 0 min 85 W/m 0,0 km/h (0 Bft) 91,30 %
06.02.2020 11:14 3,9 C 4,4 C 3,9 C 95 % 1033,6 hPa 0,0 l/m 0 min 0 min 86 W/m 12,9 km/h (3 Bft) 93,62 %
06.02.2020 11:16 3,9 C 4,4 C 3,9 C 95 % 1033,6 hPa 0,0 l/m 0 min 0 min 84 W/m 0,0 km/h (0 Bft) 93,62 %
06.02.2020 11:18 3,9 C 4,4 C 3,9 C 95 % 1033,6 hPa 0,0 l/m 0 min 0 min 83 W/m 0,0 km/h (0 Bft) 89,36 %
06.02.2020 11:20 4,0 C 4,4 C 3,9 C 95 % 1033,6 hPa 0,0 l/m 0 min 0 min 83 W/m 0,0 km/h (0 Bft) 93,62 %
06.02.2020 11:22 4,1 C 4,4 C 3,9 C 95 % 1033,5 hPa 0,0 l/m 0 min 0 min 86 W/m 0,0 km/h (0 Bft) 91,49 %
06.02.2020 11:24 4,1 C 4,4 C 3,9 C 94 % 1033,5 hPa 0,0 l/m 0 min 0 min 91 W/m 0,0 km/h (0 Bft) 91,30 %
06.02.2020 11:26 4,1 C 4,4 C 3,9 C 95 % 1033,5 hPa 0,0 l/m 0 min 0 min 89 W/m 6,4 km/h (2 Bft) 93,62 %
06.02.2020 11:28 4,1 C 4,4 C 3,9 C 94 % 1033,5 hPa 0,0 l/m 0 min 0 min 84 W/m 6,4 km/h (2 Bft) 93,62 %
06.02.2020 11:30 4,2 C 4,4 C 3,9 C 94 % 1033,4 hPa 0,0 l/m 0 min 0 min 81 W/m 3,2 km/h (1 Bft) 93,62 %
06.02.2020 11:32 4,2 C 5,0 C 3,9 C 94 % 1033,4 hPa 0,0 l/m 0 min 0 min 83 W/m 0,0 km/h (0 Bft) 95,74 %
06.02.2020 11:34 4,2 C 5,0 C 3,9 C 94 % 1033,4 hPa 0,0 l/m 0 min 0 min 85 W/m 3,2 km/h (1 Bft) 95,74 %
06.02.2020 11:36 4,3 C 5,0 C 3,9 C 94 % 1033,4 hPa 0,0 l/m 0 min 0 min 88 W/m 0,0 km/h (0 Bft) 82,61 %
06.02.2020 11:38 4,3 C 5,0 C 4,4 C 94 % 1033,4 hPa 0,0 l/m 0 min 0 min 91 W/m 0,0 km/h (0 Bft) 63,64 %
06.02.2020 11:40 4,3 C 5,0 C 4,4 C 94 % 1033,3 hPa 0,0 l/m 0 min 0 min 91 W/m 0,0 km/h (0 Bft) 95,74 %
06.02.2020 11:42 4,3 C 5,0 C 4,4 C 94 % 1033,3 hPa 0,0 l/m 0 min 0 min 94 W/m 6,4 km/h (2 Bft) 97,87 %
06.02.2020 11:44 4,4 C 5,0 C 4,4 C 94 % 1033,3 hPa 0,0 l/m 0 min 0 min 99 W/m 3,2 km/h (1 Bft) 95,74 %
06.02.2020 11:46 4,4 C 5,0 C 4,4 C 94 % 1033,2 hPa 0,0 l/m 0 min 0 min 110 W/m 6,4 km/h (2 Bft) 97,83 %
06.02.2020 11:48 4,4 C 5,0 C 4,4 C 94 % 1033,2 hPa 0,0 l/m 0 min 0 min 115 W/m 6,4 km/h (2 Bft) 97,87 %
06.02.2020 11:50 4,5 C 5,0 C 4,4 C 94 % 1033,3 hPa 0,0 l/m 0 min 0 min 112 W/m 6,4 km/h (2 Bft) 97,87 %
06.02.2020 11:52 4,6 C 5,6 C 4,4 C 94 % 1033,2 hPa 0,0 l/m 0 min 0 min 107 W/m 0,0 km/h (0 Bft) 97,87 %
06.02.2020 11:54 4,6 C 5,6 C 4,4 C 94 % 1033,1 hPa 0,0 l/m 0 min 0 min 112 W/m 0,0 km/h (0 Bft) 97,87 %
06.02.2020 11:56 4,6 C 5,6 C 4,4 C 94 % 1033,2 hPa 0,0 l/m 0 min 0 min 115 W/m 3,2 km/h (1 Bft) 100,00 %
06.02.2020 11:58 4,6 C 5,6 C 4,4 C 93 % 1033,2 hPa 0,0 l/m 0 min 0 min 115 W/m 3,2 km/h (1 Bft) 100,00 %
06.02.2020 12:00 4,7 C 5,6 C 5,0 C 93 % 1033,2 hPa 0,0 l/m 0 min 0 min 106 W/m 0,0 km/h (0 Bft) 97,87 %
06.02.2020 12:02 4,7 C 5,6 C 5,0 C 93 % 1033,2 hPa 0,0 l/m 0 min 0 min 93 W/m 0,0 km/h (0 Bft) 100,00 %
06.02.2020 12:04 4,7 C 5,6 C 5,0 C 93 % 1033,1 hPa 0,0 l/m 0 min 0 min 85 W/m 0,0 km/h (0 Bft) 100,00 %
06.02.2020 12:06 4,8 C 5,6 C 4,4 C 93 % 1033,1 hPa 0,0 l/m 0 min 0 min 81 W/m 0,0 km/h (0 Bft) 100,00 %
06.02.2020 12:08 4,8 C 5,6 C 4,4 C 93 % 1033,1 hPa 0,0 l/m 0 min 0 min 80 W/m 0,0 km/h (0 Bft) 100,00 %
06.02.2020 12:10 4,8 C 5,6 C 4,4 C 93 % 1033,1 hPa 0,0 l/m 0 min 0 min 80 W/m 0,0 km/h (0 Bft) 100,00 %
06.02.2020 12:12 4,9 C 5,6 C 5,0 C 93 % 1033,1 hPa 0,0 l/m 0 min 0 min 84 W/m 0,0 km/h (0 Bft) 100,00 %
06.02.2020 12:14 4,9 C 5,6 C 5,0 C 93 % 1033,0 hPa 0,0 l/m 0 min 0 min 91 W/m 0,0 km/h (0 Bft) 95,74 %
06.02.2020 12:16 4,9 C 5,6 C 5,0 C 93 % 1033,0 hPa 0,0 l/m 0 min 0 min 92 W/m 0,0 km/h (0 Bft) 97,87 %
06.02.2020 12:18 5,0 C 5,6 C 5,0 C 93 % 1033,0 hPa 0,0 l/m 0 min 0 min 88 W/m 0,0 km/h (0 Bft) 100,00 %
06.02.2020 12:20 5,1 C 5,6 C 5,0 C 93 % 1033,0 hPa 0,0 l/m 0 min 0 min 83 W/m 0,0 km/h (0 Bft) 100,00 %
06.02.2020 12:22 5,1 C 5,6 C 5,0 C 93 % 1033,0 hPa 0,0 l/m 0 min 0 min 77 W/m 0,0 km/h (0 Bft) 97,83 %
06.02.2020 12:24 5,1 C 5,6 C 5,0 C 93 % 1032,9 hPa 0,0 l/m 0 min 0 min 76 W/m 0,0 km/h (0 Bft) 100,00 %
06.02.2020 12:26 5,1 C 5,6 C 5,0 C 92 % 1032,9 hPa 0,0 l/m 0 min 0 min 78 W/m 0,0 km/h (0 Bft) 100,00 %
06.02.2020 12:28 5,2 C 5,6 C 5,0 C 92 % 1032,9 hPa 0,0 l/m 0 min 0 min 82 W/m 0,0 km/h (0 Bft) 100,00 %
06.02.2020 12:30 5,2 C 5,6 C 5,0 C 92 % 1033,0 hPa 0,0 l/m 0 min 0 min 84 W/m 0,0 km/h (0 Bft) 100,00 %
06.02.2020 12:32 5,2 C 5,6 C 5,0 C 92 % 1032,9 hPa 0,0 l/m 0 min 0 min 84 W/m 0,0 km/h (0 Bft) 100,00 %
06.02.2020 12:34 5,3 C 5,6 C 5,0 C 92 % 1032,9 hPa 0,0 l/m 0 min 0 min 85 W/m 0,0 km/h (0 Bft) 100,00 %
06.02.2020 12:36 5,3 C 5,6 C 5,0 C 92 % 1032,9 hPa 0,0 l/m 0 min 0 min 89 W/m 0,0 km/h (0 Bft) 100,00 %
06.02.2020 12:38 5,3 C 5,6 C 5,0 C 92 % 1032,9 hPa 0,0 l/m 0 min 0 min 90 W/m 0,0 km/h (0 Bft) 100,00 %
06.02.2020 12:40 5,3 C 5,6 C 5,0 C 91 % 1032,9 hPa 0,0 l/m 0 min 0 min 94 W/m 0,0 km/h (0 Bft) 100,00 %
06.02.2020 12:42 5,4 C 6,1 C 5,0 C 92 % 1032,9 hPa 0,0 l/m 0 min 0 min 95 W/m 0,0 km/h (0 Bft) 100,00 %
06.02.2020 12:44 5,4 C 5,6 C 5,0 C 91 % 1032,8 hPa 0,0 l/m 0 min 0 min 95 W/m 0,0 km/h (0 Bft) 100,00 %
06.02.2020 12:46 5,5 C 6,1 C 5,0 C 91 % 1032,9 hPa 0,0 l/m 0 min 0 min 93 W/m 0,0 km/h (0 Bft) 97,83 %
06.02.2020 12:48 5,5 C 6,1 C 5,0 C 91 % 1032,9 hPa 0,0 l/m 0 min 0 min 91 W/m 0,0 km/h (0 Bft) 100,00 %
06.02.2020 12:50 5,6 C 6,1 C 5,0 C 91 % 1032,8 hPa 0,0 l/m 0 min 0 min 87 W/m 0,0 km/h (0 Bft) 100,00 %
06.02.2020 12:52 5,6 C 6,1 C 5,0 C 91 % 1032,8 hPa 0,0 l/m 0 min 0 min 83 W/m 0,0 km/h (0 Bft) 100,00 %
06.02.2020 12:54 5,6 C 6,1 C 5,0 C 91 % 1032,8 hPa 0,0 l/m 0 min 0 min 81 W/m 0,0 km/h (0 Bft) 100,00 %
06.02.2020 12:56 5,6 C 6,1 C 5,0 C 91 % 1032,8 hPa 0,0 l/m 0 min 0 min 80 W/m 0,0 km/h (0 Bft) 100,00 %
06.02.2020 12:58 5,7 C 6,1 C 5,0 C 90 % 1032,8 hPa 0,0 l/m 0 min 0 min 80 W/m 0,0 km/h (0 Bft) 100,00 %
06.02.2020 13:00 5,7 C 6,1 C 5,0 C 90 % 1032,7 hPa 0,0 l/m 0 min 0 min 79 W/m 0,0 km/h (0 Bft) 100,00 %
06.02.2020 13:02 5,7 C 5,6 C 5,0 C 90 % 1032,7 hPa 0,0 l/m 0 min 0 min 79 W/m 0,0 km/h (0 Bft) 100,00 %
06.02.2020 13:04 5,8 C 5,6 C 5,0 C 90 % 1032,8 hPa 0,0 l/m 0 min 0 min 79 W/m 0,0 km/h (0 Bft) 100,00 %
06.02.2020 13:06 5,8 C 6,1 C 5,0 C 90 % 1032,8 hPa 0,0 l/m 0 min 0 min 76 W/m 0,0 km/h (0 Bft) 100,00 %
06.02.2020 13:08 5,8 C 6,1 C 5,0 C 90 % 1032,8 hPa 0,0 l/m 0 min 0 min 74 W/m 0,0 km/h (0 Bft) 100,00 %
06.02.2020 13:10 5,8 C 6,1 C 5,0 C 90 % 1032,8 hPa 0,0 l/m 0 min 0 min 77 W/m 0,0 km/h (0 Bft) 100,00 %
06.02.2020 13:12 5,8 C 6,1 C 5,0 C 90 % 1032,8 hPa 0,0 l/m 0 min 0 min 79 W/m 0,0 km/h (0 Bft) 100,00 %
06.02.2020 13:14 5,9 C 6,1 C 5,0 C 90 % 1032,8 hPa 0,0 l/m 0 min 0 min 79 W/m 0,0 km/h (0 Bft) 100,00 %
06.02.2020 13:16 5,9 C 6,1 C 5,0 C 90 % 1032,8 hPa 0,0 l/m 0 min 0 min 79 W/m 0,0 km/h (0 Bft) 100,00 %
06.02.2020 13:18 5,9 C 6,1 C 5,6 C 89 % 1032,7 hPa 0,0 l/m 0 min 0 min 77 W/m 3,2 km/h (1 Bft) 100,00 %
06.02.2020 13:20 5,9 C 6,1 C 5,6 C 89 % 1032,7 hPa 0,0 l/m 0 min 0 min 78 W/m 0,0 km/h (0 Bft) 95,65 %
06.02.2020 13:22 5,9 C 6,1 C 5,6 C 89 % 1032,7 hPa 0,0 l/m 0 min 0 min 79 W/m 6,4 km/h (2 Bft) 97,87 %
06.02.2020 13:24 5,9 C 6,1 C 5,6 C 89 % 1032,8 hPa 0,0 l/m 0 min 0 min 77 W/m 3,2 km/h (1 Bft) 97,87 %
06.02.2020 13:26 6,0 C 6,1 C 5,6 C 89 % 1032,7 hPa 0,0 l/m 0 min 0 min 72 W/m 0,0 km/h (0 Bft) 95,74 %
06.02.2020 13:28 6,0 C 6,1 C 5,6 C 89 % 1032,8 hPa 0,0 l/m 0 min 0 min 70 W/m 0,0 km/h (0 Bft) 95,74 %
06.02.2020 13:30 6,0 C 6,1 C 5,6 C 89 % 1032,8 hPa 0,0 l/m 0 min 0 min 67 W/m 0,0 km/h (0 Bft) 95,65 %
06.02.2020 13:32 6,0 C 6,1 C 5,6 C 89 % 1032,7 hPa 0,0 l/m 0 min 0 min 63 W/m 0,0 km/h (0 Bft) 95,74 %
06.02.2020 13:34 6,0 C 6,1 C 5,6 C 89 % 1032,8 hPa 0,0 l/m 0 min 0 min 63 W/m 0,0 km/h (0 Bft) 95,74 %
06.02.2020 13:36 6,0 C 6,1 C 5,6 C 89 % 1032,8 hPa 0,0 l/m 0 min 0 min 63 W/m 0,0 km/h (0 Bft) 95,74 %
06.02.2020 13:38 6,1 C 6,1 C 5,6 C 88 % 1032,8 hPa 0,0 l/m 0 min 0 min 65 W/m 6,4 km/h (2 Bft) 93,62 %
06.02.2020 13:40 6,1 C 6,1 C 5,6 C 88 % 1032,8 hPa 0,0 l/m 0 min 0 min 63 W/m 3,2 km/h (1 Bft) 95,74 %
06.02.2020 13:42 6,1 C 6,1 C 5,6 C 88 % 1032,7 hPa 0,0 l/m 0 min 0 min 64 W/m 3,2 km/h (1 Bft) 95,65 %
06.02.2020 13:44 6,1 C 6,1 C 5,6 C 88 % 1032,7 hPa 0,0 l/m 0 min 0 min 65 W/m 0,0 km/h (0 Bft) 95,74 %
06.02.2020 13:46 6,1 C 6,1 C 5,6 C 88 % 1032,7 hPa 0,0 l/m 0 min 0 min 67 W/m 0,0 km/h (0 Bft) 93,62 %
06.02.2020 13:48 6,1 C 6,1 C 5,6 C 88 % 1032,7 hPa 0,0 l/m 0 min 0 min 67 W/m 0,0 km/h (0 Bft) 95,74 %
06.02.2020 13:50 6,1 C 6,1 C 5,6 C 88 % 1032,8 hPa 0,0 l/m 0 min 0 min 66 W/m 0,0 km/h (0 Bft) 95,74 %
06.02.2020 13:52 6,2 C 6,1 C 5,6 C 88 % 1032,8 hPa 0,0 l/m 0 min 0 min 63 W/m 0,0 km/h (0 Bft) 93,62 %
06.02.2020 13:54 6,2 C 6,1 C 5,6 C 88 % 1032,7 hPa 0,0 l/m 0 min 0 min 63 W/m 0,0 km/h (0 Bft) 95,65 %
06.02.2020 13:56 6,2 C 6,1 C 5,6 C 88 % 1032,7 hPa 0,0 l/m 0 min 0 min 64 W/m 0,0 km/h (0 Bft) 91,49 %
06.02.2020 13:58 6,2 C 6,1 C 5,6 C 88 % 1032,7 hPa 0,0 l/m 0 min 0 min 65 W/m 0,0 km/h (0 Bft) 95,74 %
06.02.2020 14:00 6,2 C 6,1 C 5,6 C 88 % 1032,7 hPa 0,0 l/m 0 min 0 min 68 W/m 0,0 km/h (0 Bft) 97,87 %
06.02.2020 14:02 6,2 C 6,1 C 5,6 C 88 % 1032,6 hPa 0,0 l/m 0 min 0 min 70 W/m 0,0 km/h (0 Bft) 95,74 %
06.02.2020 14:04 6,2 C 6,1 C 5,6 C 88 % 1032,6 hPa 0,0 l/m 0 min 0 min 71 W/m 0,0 km/h (0 Bft) 93,62 %
06.02.2020 14:06 6,2 C 6,1 C 5,6 C 88 % 1032,6 hPa 0,0 l/m 0 min 0 min 72 W/m 0,0 km/h (0 Bft) 95,65 %
06.02.2020 14:08 6,3 C 6,1 C 5,6 C 88 % 1032,6 hPa 0,0 l/m 0 min 0 min 72 W/m 0,0 km/h (0 Bft) 97,87 %
06.02.2020 14:10 6,3 C 6,1 C 5,6 C 88 % 1032,6 hPa 0,0 l/m 0 min 0 min 70 W/m 0,0 km/h (0 Bft) 95,74 %
06.02.2020 14:12 6,3 C 6,7 C 5,6 C 88 % 1032,6 hPa 0,0 l/m 0 min 0 min 65 W/m 0,0 km/h (0 Bft) 95,74 %
06.02.2020 14:14 6,3 C 6,7 C 5,6 C 88 % 1032,6 hPa 0,0 l/m 0 min 0 min 62 W/m 0,0 km/h (0 Bft) 95,74 %
06.02.2020 14:16 6,3 C 6,1 C 5,6 C 88 % 1032,5 hPa 0,0 l/m 0 min 0 min 63 W/m 0,0 km/h (0 Bft) 97,87 %
06.02.2020 14:18 6,3 C 6,1 C 5,6 C 88 % 1032,5 hPa 0,0 l/m 0 min 0 min 65 W/m 0,0 km/h (0 Bft) 100,00 %
06.02.2020 14:20 6,4 C 6,1 C 5,6 C 88 % 1032,5 hPa 0,0 l/m 0 min 0 min 69 W/m 0,0 km/h (0 Bft) 100,00 %
06.02.2020 14:22 6,4 C 6,7 C 5,6 C 88 % 1032,4 hPa 0,0 l/m 0 min 0 min 71 W/m 0,0 km/h (0 Bft) 95,74 %
06.02.2020 14:24 6,4 C 6,7 C 5,6 C 88 % 1032,4 hPa 0,0 l/m 0 min 0 min 76 W/m 0,0 km/h (0 Bft) 97,87 %
06.02.2020 14:26 6,4 C 6,7 C 5,6 C 88 % 1032,4 hPa 0,0 l/m 0 min 0 min 81 W/m 0,0 km/h (0 Bft) 95,74 %
06.02.2020 14:28 6,4 C 6,7 C 5,6 C 88 % 1032,4 hPa 0,0 l/m 0 min 0 min 85 W/m 0,0 km/h (0 Bft) 97,87 %
06.02.2020 14:30 6,4 C 6,7 C 5,6 C 88 % 1032,4 hPa 0,0 l/m 0 min 0 min 89 W/m 0,0 km/h (0 Bft) 97,83 %
06.02.2020 14:32 6,4 C 6,7 C 6,1 C 88 % 1032,3 hPa 0,0 l/m 0 min 0 min 94 W/m 0,0 km/h (0 Bft) 97,87 %
06.02.2020 14:34 6,4 C 6,7 C 6,1 C 88 % 1032,3 hPa 0,0 l/m 0 min 0 min 107 W/m 6,4 km/h (2 Bft) 97,87 %
06.02.2020 14:36 6,4 C 6,7 C 6,1 C 88 % 1032,2 hPa 0,0 l/m 0 min 0 min 120 W/m 6,4 km/h (2 Bft) 95,74 %
06.02.2020 14:38 6,5 C 6,7 C 6,1 C 88 % 1032,2 hPa 0,0 l/m 0 min 0 min 127 W/m 3,2 km/h (1 Bft) 97,87 %
06.02.2020 14:40 6,5 C 6,7 C 6,1 C 88 % 1032,2 hPa 0,0 l/m 0 min 0 min 127 W/m 3,2 km/h (1 Bft) 95,65 %
06.02.2020 14:42 6,5 C 7,2 C 6,1 C 87 % 1032,2 hPa 0,0 l/m 0 min 0 min 126 W/m 6,4 km/h (2 Bft) 97,87 %
06.02.2020 14:44 6,5 C 7,2 C 6,1 C 87 % 1032,2 hPa 0,0 l/m 0 min 0 min 127 W/m 3,2 km/h (1 Bft) 97,87 %
06.02.2020 14:46 6,6 C 7,2 C 6,1 C 87 % 1032,2 hPa 0,0 l/m 0 min 0 min 118 W/m 3,2 km/h (1 Bft) 97,87 %
06.02.2020 14:48 6,6 C 7,2 C 6,1 C 87 % 1032,3 hPa 0,0 l/m 0 min 0 min 113 W/m 3,2 km/h (1 Bft) 97,87 %
06.02.2020 14:50 6,6 C 7,2 C 6,1 C 87 % 1032,2 hPa 0,0 l/m 0 min 0 min 112 W/m 0,0 km/h (0 Bft) 97,87 %
06.02.2020 14:52 6,6 C 6,7 C 6,1 C 87 % 1032,1 hPa 0,0 l/m 0 min 0 min 121 W/m 9,7 km/h (2 Bft) 97,83 %
06.02.2020 14:54 6,6 C 7,2 C 6,1 C 87 % 1032,1 hPa 0,0 l/m 0 min 0 min 127 W/m 3,2 km/h (1 Bft) 97,87 %
06.02.2020 14:56 6,6 C 7,2 C 6,7 C 87 % 1032,1 hPa 0,0 l/m 0 min 0 min 122 W/m 3,2 km/h (1 Bft) 97,87 %
06.02.2020 14:58 6,7 C 7,2 C 6,7 C 87 % 1032,1 hPa 0,0 l/m 0 min 0 min 116 W/m 6,4 km/h (2 Bft) 97,87 %
06.02.2020 15:00 6,7 C 7,2 C 6,7 C 86 % 1032,1 hPa 0,0 l/m 0 min 0 min 119 W/m 0,0 km/h (0 Bft) 97,87 %
06.02.2020 15:02 6,7 C 7,2 C 6,1 C 86 % 1032,1 hPa 0,0 l/m 0 min 0 min 124 W/m 9,7 km/h (2 Bft) 97,87 %
06.02.2020 15:04 6,7 C 7,2 C 6,7 C 86 % 1032,1 hPa 0,0 l/m 0 min 0 min 129 W/m 3,2 km/h (1 Bft) 97,83 %
06.02.2020 15:06 6,7 C 7,2 C 6,7 C 86 % 1032,0 hPa 0,0 l/m 0 min 0 min 129 W/m 6,4 km/h (2 Bft) 97,87 %
06.02.2020 15:08 6,7 C 7,2 C 6,7 C 86 % 1032,0 hPa 0,0 l/m 0 min 0 min 128 W/m 6,4 km/h (2 Bft) 95,74 %
06.02.2020 15:10 6,7 C 7,2 C 6,7 C 85 % 1032,0 hPa 0,0 l/m 0 min 0 min 126 W/m 6,4 km/h (2 Bft) 97,87 %
06.02.2020 15:12 6,7 C 7,2 C 6,7 C 85 % 1032,0 hPa 0,0 l/m 0 min 0 min 124 W/m 6,4 km/h (2 Bft) 95,74 %
06.02.2020 15:14 6,7 C 7,2 C 6,7 C 85 % 1032,0 hPa 0,0 l/m 0 min 0 min 121 W/m 3,2 km/h (1 Bft) 97,87 %
06.02.2020 15:16 6,8 C 7,2 C 6,7 C 85 % 1032,0 hPa 0,0 l/m 0 min 0 min 118 W/m 0,0 km/h (0 Bft) 97,83 %
06.02.2020 15:18 6,8 C 7,2 C 6,7 C 85 % 1032,0 hPa 0,0 l/m 0 min 0 min 117 W/m 0,0 km/h (0 Bft) 97,87 %
06.02.2020 15:20 6,8 C 7,2 C 6,7 C 85 % 1032,0 hPa 0,0 l/m 0 min 0 min 120 W/m 6,4 km/h (2 Bft) 97,87 %
06.02.2020 15:22 6,8 C 8,3 C 6,7 C 85 % 1032,0 hPa 0,0 l/m 2 min 0 min 179 W/m 3,2 km/h (1 Bft) 97,87 %
06.02.2020 15:24 6,8 C 7,8 C 6,7 C 85 % 1031,9 hPa 0,0 l/m 0 min 0 min 124 W/m 6,4 km/h (2 Bft) 97,87 %
06.02.2020 15:26 6,9 C 7,8 C 6,7 C 85 % 1032,0 hPa 0,0 l/m 0 min 0 min 112 W/m 3,2 km/h (1 Bft) 100,00 %
06.02.2020 15:28 6,9 C 7,8 C 6,7 C 84 % 1032,0 hPa 0,0 l/m 0 min 0 min 105 W/m 6,4 km/h (2 Bft) 100,00 %
06.02.2020 15:30 6,9 C 7,2 C 6,7 C 85 % 1032,0 hPa 0,0 l/m 0 min 0 min 101 W/m 0,0 km/h (0 Bft) 100,00 %
06.02.2020 15:32 6,9 C 7,2 C 6,1 C 84 % 1032,0 hPa 0,0 l/m 0 min 0 min 99 W/m 0,0 km/h (0 Bft) 100,00 %
06.02.2020 15:34 6,9 C 7,2 C 6,1 C 84 % 1032,0 hPa 0,0 l/m 0 min 0 min 97 W/m 0,0 km/h (0 Bft) 100,00 %
06.02.2020 15:36 6,9 C 7,2 C 6,1 C 84 % 1032,0 hPa 0,0 l/m 0 min 0 min 93 W/m 0,0 km/h (0 Bft) 97,87 %
06.02.2020 15:38 7,0 C 7,2 C 6,1 C 84 % 1032,1 hPa 0,0 l/m 0 min 0 min 85 W/m 0,0 km/h (0 Bft) 97,87 %
06.02.2020 15:40 7,0 C 7,2 C 6,1 C 84 % 1032,1 hPa 0,0 l/m 0 min 0 min 78 W/m 0,0 km/h (0 Bft) 97,83 %
06.02.2020 15:42 7,0 C 7,2 C 6,1 C 84 % 1032,1 hPa 0,0 l/m 0 min 0 min 75 W/m 0,0 km/h (0 Bft) 97,87 %
06.02.2020 15:44 7,0 C 7,2 C 6,1 C 84 % 1032,0 hPa 0,0 l/m 0 min 0 min 75 W/m 3,2 km/h (1 Bft) 97,87 %
06.02.2020 15:46 7,0 C 6,7 C 6,1 C 84 % 1032,0 hPa 0,0 l/m 0 min 0 min 77 W/m 3,2 km/h (1 Bft) 97,87 %
06.02.2020 15:48 7,0 C 6,7 C 6,1 C 84 % 1032,0 hPa 0,0 l/m 0 min 0 min 81 W/m 0,0 km/h (0 Bft) 97,87 %
06.02.2020 15:50 7,0 C 6,7 C 6,1 C 83 % 1032,0 hPa 0,0 l/m 0 min 0 min 80 W/m 0,0 km/h (0 Bft) 95,65 %
06.02.2020 15:52 7,0 C 6,7 C 6,1 C 83 % 1032,1 hPa 0,0 l/m 0 min 0 min 73 W/m 0,0 km/h (0 Bft) 97,87 %
06.02.2020 15:54 7,0 C 6,7 C 6,1 C 83 % 1032,1 hPa 0,0 l/m 0 min 0 min 69 W/m 0,0 km/h (0 Bft) 95,74 %
06.02.2020 15:56 7,0 C 6,7 C 6,1 C 83 % 1032,1 hPa 0,0 l/m 0 min 0 min 67 W/m 6,4 km/h (2 Bft) 95,74 %
06.02.2020 15:58 7,0 C 6,7 C 6,1 C 83 % 1032,1 hPa 0,0 l/m 0 min 0 min 65 W/m 3,2 km/h (1 Bft) 55,56 %
06.02.2020 16:00 7,0 C 6,7 C 6,1 C 83 % 1032,1 hPa 0,0 l/m 0 min 0 min 62 W/m 0,0 km/h (0 Bft) 97,87 %
06.02.2020 16:02 7,0 C 6,7 C 5,6 C 84 % 1032,1 hPa 0,0 l/m 0 min 0 min 61 W/m 0,0 km/h (0 Bft) 97,83 %
06.02.2020 16:04 7,0 C 6,7 C 5,6 C 84 % 1032,1 hPa 0,0 l/m 0 min 0 min 58 W/m 0,0 km/h (0 Bft) 97,87 %
06.02.2020 16:06 7,0 C 6,7 C 5,6 C 84 % 1032,1 hPa 0,0 l/m 0 min 0 min 60 W/m 0,0 km/h (0 Bft) 95,74 %
06.02.2020 16:08 7,0 C 6,7 C 5,6 C 84 % 1032,0 hPa 0,0 l/m 0 min 0 min 61 W/m 0,0 km/h (0 Bft) 97,87 %
06.02.2020 16:10 7,0 C 6,7 C 5,6 C 84 % 1032,0 hPa 0,0 l/m 0 min 0 min 59 W/m 3,2 km/h (1 Bft) 97,87 %
06.02.2020 16:12 7,0 C 6,7 C 5,6 C 85 % 1032,0 hPa 0,0 l/m 0 min 0 min 55 W/m 3,2 km/h (1 Bft) 95,74 %
06.02.2020 16:14 7,0 C 6,7 C 5,6 C 85 % 1032,0 hPa 0,0 l/m 0 min 0 min 53 W/m 0,0 km/h (0 Bft) 93,48 %
06.02.2020 16:16 6,9 C 6,7 C 5,6 C 85 % 1032,0 hPa 0,0 l/m 0 min 0 min 50 W/m 3,2 km/h (1 Bft) 95,74 %
06.02.2020 16:18 6,9 C 6,7 C 5,6 C 85 % 1032,0 hPa 0,0 l/m 0 min 0 min 48 W/m 0,0 km/h (0 Bft) 97,87 %
06.02.2020 16:20 6,9 C 6,7 C 5,6 C 85 % 1032,0 hPa 0,0 l/m 0 min 0 min 47 W/m 0,0 km/h (0 Bft) 97,87 %
06.02.2020 16:22 6,9 C 6,7 C 5,6 C 85 % 1032,0 hPa 0,0 l/m 0 min 0 min 43 W/m 0,0 km/h (0 Bft) 97,87 %
06.02.2020 16:24 6,9 C 6,1 C 5,6 C 85 % 1032,1 hPa 0,0 l/m 0 min 0 min 41 W/m 0,0 km/h (0 Bft) 100,00 %
06.02.2020 16:26 6,9 C 6,1 C 5,6 C 84 % 1032,1 hPa 0,0 l/m 0 min 0 min 38 W/m 0,0 km/h (0 Bft) 95,65 %
06.02.2020 16:28 6,9 C 6,1 C 5,6 C 84 % 1032,1 hPa 0,0 l/m 0 min 0 min 35 W/m 0,0 km/h (0 Bft) 97,87 %
06.02.2020 16:30 6,9 C 6,1 C 5,6 C 84 % 1032,1 hPa 0,0 l/m 0 min 0 min 33 W/m 0,0 km/h (0 Bft) 97,87 %
06.02.2020 16:32 6,9 C 6,1 C 5,6 C 85 % 1032,1 hPa 0,0 l/m 0 min 0 min 33 W/m 6,4 km/h (2 Bft) 97,87 %
06.02.2020 16:34 6,9 C 6,1 C 5,6 C 85 % 1032,1 hPa 0,0 l/m 0 min 0 min 31 W/m 0,0 km/h (0 Bft) 97,87 %
06.02.2020 16:36 6,9 C 6,1 C 5,6 C 85 % 1032,1 hPa 0,0 l/m 0 min 0 min 29 W/m 0,0 km/h (0 Bft) 97,87 %
06.02.2020 16:38 6,8 C 6,1 C 5,6 C 85 % 1032,2 hPa 0,0 l/m 0 min 0 min 26 W/m 6,4 km/h (2 Bft) 97,83 %
06.02.2020 16:40 6,8 C 6,1 C 5,6 C 85 % 1032,2 hPa 0,0 l/m 0 min 0 min 25 W/m 0,0 km/h (0 Bft) 97,87 %
06.02.2020 16:42 6,8 C 6,1 C 5,6 C 85 % 1032,2 hPa 0,0 l/m 0 min 0 min 25 W/m 0,0 km/h (0 Bft) 97,87 %
06.02.2020 16:44 6,8 C 6,1 C 5,0 C 85 % 1032,2 hPa 0,0 l/m 0 min 0 min 25 W/m 0,0 km/h (0 Bft) 95,74 %
06.02.2020 16:46 6,8 C 6,1 C 5,0 C 85 % 1032,1 hPa 0,0 l/m 0 min 0 min 25 W/m 0,0 km/h (0 Bft) 95,74 %
06.02.2020 16:48 6,8 C 6,1 C 5,0 C 85 % 1032,1 hPa 0,0 l/m 0 min 0 min 25 W/m 0,0 km/h (0 Bft) 97,83 %
06.02.2020 16:50 6,8 C 5,6 C 5,0 C 85 % 1032,1 hPa 0,0 l/m 0 min 0 min 23 W/m 0,0 km/h (0 Bft) 97,87 %
06.02.2020 16:52 6,7 C 6,1 C 5,0 C 85 % 1032,0 hPa 0,0 l/m 0 min 0 min 21 W/m 0,0 km/h (0 Bft) 97,87 %
06.02.2020 16:54 6,7 C 5,6 C 5,0 C 85 % 1032,0 hPa 0,0 l/m 0 min 0 min 21 W/m 0,0 km/h (0 Bft) 97,87 %
06.02.2020 16:56 6,7 C 5,6 C 5,0 C 85 % 1032,0 hPa 0,0 l/m 0 min 0 min 19 W/m 3,2 km/h (1 Bft) 97,87 %
06.02.2020 16:58 6,7 C 5,6 C 5,0 C 85 % 1032,0 hPa 0,0 l/m 0 min 0 min 18 W/m 3,2 km/h (1 Bft) 97,87 %
06.02.2020 17:00 6,7 C 5,6 C 5,0 C 85 % 1031,9 hPa 0,0 l/m 0 min 0 min 16 W/m 0,0 km/h (0 Bft) 97,83 %
06.02.2020 17:02 6,7 C 5,6 C 5,0 C 85 % 1031,8 hPa 0,0 l/m 0 min 0 min 14 W/m 3,2 km/h (1 Bft) 97,87 %
06.02.2020 17:04 6,6 C 5,6 C 5,0 C 85 % 1031,8 hPa 0,0 l/m 0 min 0 min 14 W/m 3,2 km/h (1 Bft) 97,87 %
06.02.2020 17:06 6,6 C 5,6 C 5,0 C 85 % 1031,7 hPa 0,0 l/m 0 min 0 min 13 W/m 0,0 km/h (0 Bft) 100,00 %
06.02.2020 17:08 6,6 C 5,6 C 5,0 C 85 % 1031,7 hPa 0,0 l/m 0 min 0 min 12 W/m 0,0 km/h (0 Bft) 97,87 %
06.02.2020 17:10 6,5 C 5,6 C 5,0 C 85 % 1031,8 hPa 0,0 l/m 0 min 0 min 11 W/m 0,0 km/h (0 Bft) 100,00 %
06.02.2020 17:12 6,5 C 5,6 C 5,0 C 84 % 1031,8 hPa 0,0 l/m 0 min 0 min 10 W/m 0,0 km/h (0 Bft) 100,00 %
06.02.2020 17:14 6,5 C 5,6 C 5,0 C 84 % 1031,9 hPa 0,0 l/m 0 min 0 min 9 W/m 0,0 km/h (0 Bft) 100,00 %
06.02.2020 17:16 6,5 C 5,6 C 5,0 C 84 % 1031,8 hPa 0,0 l/m 0 min 0 min 7 W/m 0,0 km/h (0 Bft) 100,00 %
06.02.2020 17:18 6,5 C 5,6 C 5,0 C 85 % 1031,7 hPa 0,0 l/m 0 min 0 min 7 W/m 0,0 km/h (0 Bft) 100,00 %
06.02.2020 17:20 6,5 C 5,6 C 5,0 C 85 % 1031,7 hPa 0,0 l/m 0 min 0 min 7 W/m 0,0 km/h (0 Bft) 100,00 %
06.02.2020 17:22 6,5 C 5,6 C 4,4 C 85 % 1031,8 hPa 0,0 l/m 0 min 0 min 6 W/m 0,0 km/h (0 Bft) 100,00 %
06.02.2020 17:24 6,4 C 5,6 C 4,4 C 85 % 1031,9 hPa 0,0 l/m 0 min 0 min 5 W/m 0,0 km/h (0 Bft) 100,00 %
06.02.2020 17:26 6,4 C 5,6 C 4,4 C 85 % 1031,9 hPa 0,0 l/m 0 min 0 min 3 W/m 0,0 km/h (0 Bft) 97,87 %
06.02.2020 17:28 6,4 C 5,0 C 4,4 C 85 % 1031,9 hPa 0,0 l/m 0 min 0 min 0 W/m 0,0 km/h (0 Bft) 97,87 %
06.02.2020 17:30 6,4 C 5,0 C 4,4 C 85 % 1031,9 hPa 0,0 l/m 0 min 0 min 0 W/m 0,0 km/h (0 Bft) 97,87 %
06.02.2020 17:32 6,3 C 5,0 C 4,4 C 85 % 1031,9 hPa 0,0 l/m 0 min 0 min 0 W/m 0,0 km/h (0 Bft) 100,00 %
06.02.2020 17:34 6,3 C 5,0 C 4,4 C 85 % 1031,9 hPa 0,0 l/m 0 min 0 min 0 W/m 0,0 km/h (0 Bft) 100,00 %
06.02.2020 17:36 6,3 C 5,0 C 4,4 C 85 % 1031,9 hPa 0,0 l/m 0 min 0 min 0 W/m 0,0 km/h (0 Bft) 97,83 %
06.02.2020 17:38 6,3 C 5,0 C 4,4 C 85 % 1031,9 hPa 0,0 l/m 0 min 0 min 0 W/m 0,0 km/h (0 Bft) 100,00 %
06.02.2020 17:40 6,3 C 5,0 C 4,4 C 85 % 1031,9 hPa 0,0 l/m 0 min 0 min 0 W/m 0,0 km/h (0 Bft) 100,00 %
06.02.2020 17:42 6,3 C 5,0 C 4,4 C 85 % 1031,9 hPa 0,0 l/m 0 min 0 min 0 W/m 0,0 km/h (0 Bft) 97,87 %
06.02.2020 17:44 6,3 C 5,0 C 4,4 C 85 % 1032,0 hPa 0,0 l/m 0 min 0 min 0 W/m 0,0 km/h (0 Bft) 97,87 %
06.02.2020 17:46 6,2 C 5,0 C 4,4 C 85 % 1031,9 hPa 0,0 l/m 0 min 0 min 0 W/m 0,0 km/h (0 Bft) 97,87 %
06.02.2020 17:48 6,2 C 5,0 C 4,4 C 85 % 1031,9 hPa 0,0 l/m 0 min 0 min 0 W/m 0,0 km/h (0 Bft) 97,83 %
06.02.2020 17:50 6,2 C 5,0 C 4,4 C 85 % 1032,0 hPa 0,0 l/m 0 min 0 min 0 W/m 0,0 km/h (0 Bft) 97,87 %
06.02.2020 17:52 6,2 C 5,0 C 4,4 C 85 % 1031,9 hPa 0,0 l/m 0 min 0 min 0 W/m 0,0 km/h (0 Bft) 97,87 %
06.02.2020 17:54 6,2 C 5,0 C 4,4 C 85 % 1031,9 hPa 0,0 l/m 0 min 0 min 0 W/m 0,0 km/h (0 Bft) 97,87 %
06.02.2020 17:56 6,1 C 5,0 C 4,4 C 85 % 1032,0 hPa 0,0 l/m 0 min 0 min 0 W/m 0,0 km/h (0 Bft) 97,87 %
06.02.2020 17:58 6,1 C 5,0 C 4,4 C 85 % 1032,0 hPa 0,0 l/m 0 min 0 min 0 W/m 6,4 km/h (2 Bft) 95,65 %
06.02.2020 18:00 6,1 C 5,6 C 4,4 C 84 % 1031,9 hPa 0,0 l/m 0 min 0 min 0 W/m 9,7 km/h (2 Bft) 97,87 %
06.02.2020 18:02 6,0 C 5,6 C 4,4 C 84 % 1031,9 hPa 0,0 l/m 0 min 0 min 0 W/m 0,0 km/h (0 Bft) 97,87 %
06.02.2020 18:04 6,0 C 5,6 C 4,4 C 83 % 1031,8 hPa 0,0 l/m 0 min 0 min 0 W/m 6,4 km/h (2 Bft) 97,87 %
06.02.2020 18:06 5,9 C 5,6 C 4,4 C 83 % 1031,9 hPa 0,0 l/m 0 min 0 min 0 W/m 3,2 km/h (1 Bft) 97,87 %
06.02.2020 18:08 5,9 C 5,6 C 4,4 C 82 % 1031,9 hPa 0,0 l/m 0 min 0 min 0 W/m 0,0 km/h (0 Bft) 97,87 %
06.02.2020 18:10 5,9 C 5,6 C 4,4 C 82 % 1031,9 hPa 0,0 l/m 0 min 0 min 0 W/m 3,2 km/h (1 Bft) 97,83 %
06.02.2020 18:12 5,9 C 5,6 C 4,4 C 82 % 1031,8 hPa 0,0 l/m 0 min 0 min 0 W/m 0,0 km/h (0 Bft) 97,87 %
06.02.2020 18:14 5,9 C 5,6 C 4,4 C 82 % 1031,8 hPa 0,0 l/m 0 min 0 min 0 W/m 0,0 km/h (0 Bft) 95,74 %
06.02.2020 18:16 5,9 C 5,6 C 4,4 C 82 % 1031,7 hPa 0,0 l/m 0 min 0 min 0 W/m 0,0 km/h (0 Bft) 91,49 %
06.02.2020 18:18 5,9 C 5,6 C 4,4 C 82 % 1031,7 hPa 0,0 l/m 0 min 0 min 0 W/m 0,0 km/h (0 Bft) 95,74 %
06.02.2020 18:20 5,9 C 5,6 C 4,4 C 82 % 1031,8 hPa 0,0 l/m 0 min 0 min 0 W/m 0,0 km/h (0 Bft) 95,74 %
06.02.2020 18:22 5,9 C 5,6 C 4,4 C 82 % 1031,8 hPa 0,0 l/m 0 min 0 min 0 W/m 0,0 km/h (0 Bft) 95,65 %
06.02.2020 18:24 5,9 C 5,6 C 4,4 C 82 % 1031,7 hPa 0,0 l/m 0 min 0 min 0 W/m 0,0 km/h (0 Bft) 95,74 %
06.02.2020 18:26 5,9 C 5,6 C 4,4 C 82 % 1031,7 hPa 0,0 l/m 0 min 0 min 0 W/m 0,0 km/h (0 Bft) 95,74 %
06.02.2020 18:28 5,9 C 5,6 C 4,4 C 82 % 1031,7 hPa 0,0 l/m 0 min 0 min 0 W/m 0,0 km/h (0 Bft) 97,87 %
06.02.2020 18:30 5,9 C 5,6 C 4,4 C 82 % 1031,7 hPa 0,0 l/m 0 min 0 min 0 W/m 0,0 km/h (0 Bft) 97,87 %
06.02.2020 18:32 5,9 C 5,0 C 4,4 C 82 % 1031,6 hPa 0,0 l/m 0 min 0 min 0 W/m 0,0 km/h (0 Bft) 95,74 %
06.02.2020 18:34 5,9 C 5,0 C 4,4 C 82 % 1031,6 hPa 0,0 l/m 0 min 0 min 0 W/m 0,0 km/h (0 Bft) 97,83 %
06.02.2020 18:36 5,9 C 5,0 C 4,4 C 83 % 1031,6 hPa 0,0 l/m 0 min 0 min 0 W/m 0,0 km/h (0 Bft) 97,87 %
06.02.2020 18:38 5,9 C 5,0 C 4,4 C 83 % 1031,6 hPa 0,0 l/m 0 min 0 min 0 W/m 0,0 km/h (0 Bft) 97,87 %
06.02.2020 18:40 5,9 C 5,0 C 4,4 C 83 % 1031,6 hPa 0,0 l/m 0 min 0 min 0 W/m 0,0 km/h (0 Bft) 65,96 %
06.02.2020 18:42 5,9 C 5,0 C 4,4 C 83 % 1031,5 hPa 0,0 l/m 0 min 0 min 0 W/m 0,0 km/h (0 Bft) 85,37 %
06.02.2020 18:44 5,9 C 5,0 C 4,4 C 83 % 1031,6 hPa 0,0 l/m 0 min 0 min 0 W/m 0,0 km/h (0 Bft) 97,83 %
06.02.2020 18:46 5,9 C 5,0 C 4,4 C 83 % 1031,5 hPa 0,0 l/m 0 min 0 min 0 W/m 0,0 km/h (0 Bft) 97,87 %
06.02.2020 18:48 5,9 C 5,0 C 4,4 C 83 % 1031,6 hPa 0,0 l/m 0 min 0 min 0 W/m 0,0 km/h (0 Bft) 95,74 %
06.02.2020 18:50 5,9 C 5,0 C 4,4 C 84 % 1031,6 hPa 0,0 l/m 0 min 0 min 0 W/m 0,0 km/h (0 Bft) 95,74 %
06.02.2020 18:52 5,9 C 5,0 C 4,4 C 84 % 1031,6 hPa 0,0 l/m 0 min 0 min 0 W/m 0,0 km/h (0 Bft) 97,87 %
06.02.2020 18:54 5,9 C 5,0 C 4,4 C 84 % 1031,6 hPa 0,0 l/m 0 min 0 min 0 W/m 0,0 km/h (0 Bft) 97,87 %
06.02.2020 18:56 5,9 C 5,0 C 4,4 C 84 % 1031,6 hPa 0,0 l/m 0 min 0 min 0 W/m 0,0 km/h (0 Bft) 97,83 %
06.02.2020 18:58 5,9 C 5,0 C 4,4 C 84 % 1031,5 hPa 0,0 l/m 0 min 0 min 0 W/m 6,4 km/h (2 Bft) 100,00 %
06.02.2020 19:00 5,9 C 5,0 C 4,4 C 84 % 1031,5 hPa 0,0 l/m 0 min 0 min 0 W/m 3,2 km/h (1 Bft) 97,87 %
06.02.2020 19:02 5,9 C 5,0 C 4,4 C 84 % 1031,6 hPa 0,0 l/m 0 min 0 min 0 W/m 6,4 km/h (2 Bft) 100,00 %
06.02.2020 19:04 5,8 C 5,0 C 4,4 C 84 % 1031,6 hPa 0,0 l/m 0 min 0 min 0 W/m 9,7 km/h (2 Bft) 100,00 %
06.02.2020 19:06 5,8 C 5,0 C 4,4 C 84 % 1031,6 hPa 0,0 l/m 0 min 0 min 0 W/m 6,4 km/h (2 Bft) 100,00 %
06.02.2020 19:08 5,8 C 5,0 C 4,4 C 84 % 1031,6 hPa 0,0 l/m 0 min 0 min 0 W/m 3,2 km/h (1 Bft) 100,00 %
06.02.2020 19:10 5,8 C 5,0 C 4,4 C 84 % 1031,6 hPa 0,0 l/m 0 min 0 min 0 W/m 3,2 km/h (1 Bft) 97,87 %
06.02.2020 19:12 5,8 C 5,0 C 4,4 C 84 % 1031,5 hPa 0,0 l/m 0 min 0 min 0 W/m 6,4 km/h (2 Bft) 97,87 %
06.02.2020 19:14 5,8 C 5,0 C 4,4 C 84 % 1031,6 hPa 0,0 l/m 0 min 0 min 0 W/m 6,4 km/h (2 Bft) 100,00 %
06.02.2020 19:16 5,8 C 5,0 C 4,4 C 84 % 1031,6 hPa 0,0 l/m 0 min 0 min 0 W/m 3,2 km/h (1 Bft) 97,87 %
06.02.2020 19:18 5,8 C 5,0 C 4,4 C 84 % 1031,6 hPa 0,0 l/m 0 min 0 min 0 W/m 0,0 km/h (0 Bft) 100,00 %
06.02.2020 19:20 5,8 C 5,0 C 4,4 C 84 % 1031,5 hPa 0,0 l/m 0 min 0 min 0 W/m 0,0 km/h (0 Bft) 100,00 %
06.02.2020 19:22 5,8 C 5,0 C 4,4 C 84 % 1031,5 hPa 0,0 l/m 0 min 0 min 0 W/m 0,0 km/h (0 Bft) 100,00 %
06.02.2020 19:24 5,8 C 5,0 C 4,4 C 84 % 1031,6 hPa 0,0 l/m 0 min 0 min 0 W/m 0,0 km/h (0 Bft) 100,00 %
06.02.2020 19:26 5,7 C 5,0 C 4,4 C 84 % 1031,6 hPa 0,0 l/m 0 min 0 min 0 W/m 0,0 km/h (0 Bft) 100,00 %
06.02.2020 19:28 5,7 C 5,0 C 4,4 C 84 % 1031,5 hPa 0,0 l/m 0 min 0 min 0 W/m 0,0 km/h (0 Bft) 100,00 %
06.02.2020 19:30 5,7 C 5,0 C 4,4 C 84 % 1031,5 hPa 0,0 l/m 0 min 0 min 0 W/m 3,2 km/h (1 Bft) 97,87 %
06.02.2020 19:32 5,7 C 5,0 C 4,4 C 84 % 1031,5 hPa 0,0 l/m 0 min 0 min 0 W/m 0,0 km/h (0 Bft) 100,00 %
06.02.2020 19:34 5,7 C 5,0 C 4,4 C 84 % 1031,5 hPa 0,0 l/m 0 min 0 min 0 W/m 0,0 km/h (0 Bft) 100,00 %
06.02.2020 19:36 5,7 C 5,0 C 4,4 C 84 % 1031,6 hPa 0,0 l/m 0 min 0 min 0 W/m 0,0 km/h (0 Bft) 100,00 %
06.02.2020 19:38 5,7 C 5,0 C 4,4 C 84 % 1031,6 hPa 0,0 l/m 0 min 0 min 0 W/m 0,0 km/h (0 Bft) 97,87 %
06.02.2020 19:40 5,7 C 5,0 C 4,4 C 84 % 1031,5 hPa 0,0 l/m 0 min 0 min 0 W/m 0,0 km/h (0 Bft) 97,87 %
06.02.2020 19:42 5,7 C 5,0 C 4,4 C 84 % 1031,6 hPa 0,0 l/m 0 min 0 min 0 W/m 6,4 km/h (2 Bft) 97,87 %
06.02.2020 19:44 5,7 C 5,0 C 4,4 C 84 % 1031,6 hPa 0,0 l/m 0 min 0 min 0 W/m 0,0 km/h (0 Bft) 97,83 %
06.02.2020 19:46 5,7 C 5,0 C 4,4 C 84 % 1031,6 hPa 0,0 l/m 0 min 0 min 0 W/m 0,0 km/h (0 Bft) 97,87 %
06.02.2020 19:48 5,7 C 5,0 C 4,4 C 84 % 1031,6 hPa 0,0 l/m 0 min 0 min 0 W/m 0,0 km/h (0 Bft) 97,87 %
06.02.2020 19:50 5,7 C 5,0 C 4,4 C 84 % 1031,6 hPa 0,0 l/m 0 min 0 min 0 W/m 0,0 km/h (0 Bft) 97,87 %
06.02.2020 19:52 5,7 C 5,0 C 4,4 C 84 % 1031,6 hPa 0,0 l/m 0 min 0 min 0 W/m 0,0 km/h (0 Bft) 95,74 %
06.02.2020 19:54 5,6 C 5,0 C 4,4 C 85 % 1031,5 hPa 0,0 l/m 0 min 0 min 0 W/m 0,0 km/h (0 Bft) 97,87 %
06.02.2020 19:56 5,6 C 5,0 C 4,4 C 85 % 1031,6 hPa 0,0 l/m 0 min 0 min 0 W/m 6,4 km/h (2 Bft) 97,83 %
06.02.2020 19:58 5,6 C 5,0 C 4,4 C 84 % 1031,6 hPa 0,0 l/m 0 min 0 min 0 W/m 3,2 km/h (1 Bft) 97,87 %
06.02.2020 20:00 5,6 C 5,0 C 4,4 C 84 % 1031,6 hPa 0,0 l/m 0 min 0 min 0 W/m 0,0 km/h (0 Bft) 97,87 %
06.02.2020 20:02 5,6 C 5,0 C 3,9 C 84 % 1031,6 hPa 0,0 l/m 0 min 0 min 0 W/m 0,0 km/h (0 Bft) 97,87 %
06.02.2020 20:04 5,6 C 5,0 C 4,4 C 84 % 1031,5 hPa 0,0 l/m 0 min 0 min 0 W/m 6,4 km/h (2 Bft) 95,74 %
06.02.2020 20:06 5,6 C 4,4 C 3,9 C 84 % 1031,5 hPa 0,0 l/m 0 min 0 min 0 W/m 0,0 km/h (0 Bft) 97,83 %
06.02.2020 20:08 5,6 C 4,4 C 3,9 C 84 % 1031,5 hPa 0,0 l/m 0 min 0 min 0 W/m 0,0 km/h (0 Bft) 97,87 %
06.02.2020 20:10 5,6 C 4,4 C 3,9 C 84 % 1031,4 hPa 0,0 l/m 0 min 0 min 0 W/m 0,0 km/h (0 Bft) 97,87 %
06.02.2020 20:12 5,6 C 4,4 C 3,9 C 84 % 1031,4 hPa 0,0 l/m 0 min 0 min 0 W/m 0,0 km/h (0 Bft) 95,74 %
06.02.2020 20:14 5,5 C 4,4 C 3,9 C 84 % 1031,5 hPa 0,0 l/m 0 min 0 min 0 W/m 0,0 km/h (0 Bft) 97,87 %
06.02.2020 20:16 5,5 C 3,9 C 3,3 C 84 % 1031,5 hPa 0,0 l/m 0 min 0 min 0 W/m 0,0 km/h (0 Bft) 97,87 %
06.02.2020 20:18 5,5 C 3,9 C 3,3 C 84 % 1031,5 hPa 0,0 l/m 0 min 0 min 0 W/m 0,0 km/h (0 Bft) 95,65 %
06.02.2020 20:20 5,5 C 3,9 C 3,3 C 85 % 1031,5 hPa 0,0 l/m 0 min 0 min 0 W/m 0,0 km/h (0 Bft) 95,74 %
06.02.2020 20:22 5,5 C 3,9 C 3,3 C 85 % 1031,4 hPa 0,0 l/m 0 min 0 min 0 W/m 0,0 km/h (0 Bft) 95,74 %
06.02.2020 20:24 5,4 C 3,3 C 3,3 C 85 % 1031,4 hPa 0,0 l/m 0 min 0 min 0 W/m 0,0 km/h (0 Bft) 93,62 %
06.02.2020 20:26 5,4 C 3,3 C 2,8 C 85 % 1031,5 hPa 0,0 l/m 0 min 0 min 0 W/m 0,0 km/h (0 Bft) 95,74 %
06.02.2020 20:28 5,4 C 3,3 C 2,8 C 85 % 1031,5 hPa 0,0 l/m 0 min 0 min 0 W/m 0,0 km/h (0 Bft) 95,74 %
06.02.2020 20:30 5,4 C 3,3 C 2,2 C 85 % 1031,6 hPa 0,0 l/m 0 min 0 min 0 W/m 0,0 km/h (0 Bft) 95,65 %
06.02.2020 20:32 5,3 C 2,8 C 2,2 C 85 % 1031,5 hPa 0,0 l/m 0 min 0 min 0 W/m 0,0 km/h (0 Bft) 93,62 %
06.02.2020 20:34 5,3 C 2,8 C 2,2 C 85 % 1031,5 hPa 0,0 l/m 0 min 0 min 0 W/m 0,0 km/h (0 Bft) 93,62 %
06.02.2020 20:36 5,3 C 2,8 C 2,2 C 85 % 1031,6 hPa 0,0 l/m 0 min 0 min 0 W/m 0,0 km/h (0 Bft) 95,74 %
06.02.2020 20:38 5,2 C 2,8 C 1,7 C 85 % 1031,5 hPa 0,0 l/m 0 min 0 min 0 W/m 0,0 km/h (0 Bft) 95,74 %
06.02.2020 20:40 5,2 C 2,8 C 1,7 C 85 % 1031,5 hPa 0,0 l/m 0 min 0 min 0 W/m 0,0 km/h (0 Bft) 95,74 %
06.02.2020 20:42 5,1 C 2,8 C 1,7 C 85 % 1031,6 hPa 0,0 l/m 0 min 0 min 0 W/m 0,0 km/h (0 Bft) 95,65 %
06.02.2020 20:44 5,1 C 2,2 C 1,7 C 85 % 1031,6 hPa 0,0 l/m 0 min 0 min 0 W/m 0,0 km/h (0 Bft) 93,62 %
06.02.2020 20:46 5,0 C 2,2 C 1,1 C 85 % 1031,7 hPa 0,0 l/m 0 min 0 min 0 W/m 0,0 km/h (0 Bft) 97,87 %
06.02.2020 20:48 4,9 C 2,2 C 1,1 C 85 % 1031,7 hPa 0,0 l/m 0 min 0 min 0 W/m 0,0 km/h (0 Bft) 97,87 %
06.02.2020 20:50 4,8 C 2,2 C 1,1 C 85 % 1031,7 hPa 0,0 l/m 0 min 0 min 0 W/m 0,0 km/h (0 Bft) 97,87 %
06.02.2020 20:52 4,8 C 2,2 C 1,1 C 85 % 1031,7 hPa 0,0 l/m 0 min 0 min 0 W/m 0,0 km/h (0 Bft) 97,87 %
06.02.2020 20:54 4,7 C 2,2 C 1,1 C 85 % 1031,7 hPa 0,0 l/m 0 min 0 min 0 W/m 0,0 km/h (0 Bft) 93,48 %
06.02.2020 20:56 4,6 C 2,2 C 1,1 C 85 % 1031,7 hPa 0,0 l/m 0 min 0 min 0 W/m 0,0 km/h (0 Bft) 95,74 %
06.02.2020 20:58 4,6 C 1,7 C 1,1 C 85 % 1031,7 hPa 0,0 l/m 0 min 0 min 0 W/m 0,0 km/h (0 Bft) 100,00 %
06.02.2020 21:00 4,4 C 1,7 C 0,6 C 85 % 1031,7 hPa 0,0 l/m 0 min 0 min 0 W/m 0,0 km/h (0 Bft) 97,87 %
06.02.2020 21:02 4,4 C 1,7 C 0,6 C 85 % 1031,7 hPa 0,0 l/m 0 min 0 min 0 W/m 0,0 km/h (0 Bft) 93,62 %
06.02.2020 21:04 4,3 C 1,7 C 0,6 C 85 % 1031,7 hPa 0,0 l/m 0 min 0 min 0 W/m 0,0 km/h (0 Bft) 97,83 %
06.02.2020 21:06 4,2 C 1,7 C 0,6 C 85 % 1031,7 hPa 0,0 l/m 0 min 0 min 0 W/m 0,0 km/h (0 Bft) 95,74 %
06.02.2020 21:08 4,2 C 1,1 C 0,6 C 85 % 1031,7 hPa 0,0 l/m 0 min 0 min 0 W/m 0,0 km/h (0 Bft) 93,62 %
06.02.2020 21:10 4,1 C 1,1 C 0,6 C 86 % 1031,6 hPa 0,0 l/m 0 min 0 min 0 W/m 0,0 km/h (0 Bft) 91,49 %
06.02.2020 21:12 4,0 C 1,1 C 0,6 C 86 % 1031,6 hPa 0,0 l/m 0 min 0 min 0 W/m 0,0 km/h (0 Bft) 97,87 %
06.02.2020 21:14 3,9 C 1,1 C 0,6 C 86 % 1031,6 hPa 0,0 l/m 0 min 0 min 0 W/m 0,0 km/h (0 Bft) 97,87 %
06.02.2020 21:16 3,8 C 1,1 C 0,6 C 86 % 1031,6 hPa 0,0 l/m 0 min 0 min 0 W/m 0,0 km/h (0 Bft) 91,30 %
06.02.2020 21:18 3,8 C 1,1 C 0,0 C 86 % 1031,6 hPa 0,0 l/m 0 min 0 min 0 W/m 0,0 km/h (0 Bft) 95,74 %
06.02.2020 21:20 3,7 C 1,1 C 0,0 C 86 % 1031,6 hPa 0,0 l/m 0 min 0 min 0 W/m 0,0 km/h (0 Bft) 95,74 %
06.02.2020 21:22 3,6 C 1,1 C 0,0 C 86 % 1031,6 hPa 0,0 l/m 0 min 0 min 0 W/m 0,0 km/h (0 Bft) 97,87 %
06.02.2020 21:24 3,6 C 0,6 C 0,0 C 86 % 1031,6 hPa 0,0 l/m 0 min 0 min 0 W/m 0,0 km/h (0 Bft) 97,87 %
06.02.2020 21:26 3,5 C 0,6 C 0,0 C 87 % 1031,6 hPa 0,0 l/m 0 min 0 min 0 W/m 0,0 km/h (0 Bft) 93,62 %
06.02.2020 21:28 3,4 C 0,6 C 0,0 C 87 % 1031,6 hPa 0,0 l/m 0 min 0 min 0 W/m 0,0 km/h (0 Bft) 97,83 %
06.02.2020 21:30 3,3 C 0,6 C 0,0 C 87 % 1031,6 hPa 0,0 l/m 0 min 0 min 0 W/m 0,0 km/h (0 Bft) 95,74 %
06.02.2020 21:32 3,3 C 0,6 C 0,0 C 87 % 1031,6 hPa 0,0 l/m 0 min 0 min 0 W/m 0,0 km/h (0 Bft) 97,87 %
06.02.2020 21:34 3,2 C 0,6 C 0,0 C 87 % 1031,6 hPa 0,0 l/m 0 min 0 min 0 W/m 0,0 km/h (0 Bft) 97,87 %
06.02.2020 21:36 3,1 C 0,6 C 0,0 C 87 % 1031,6 hPa 0,0 l/m 0 min 0 min 0 W/m 0,0 km/h (0 Bft) 97,87 %
06.02.2020 21:38 3,1 C 0,6 C 0,0 C 87 % 1031,6 hPa 0,0 l/m 0 min 0 min 0 W/m 0,0 km/h (0 Bft) 97,83 %
06.02.2020 21:40 3,0 C 0,6 C 0,0 C 87 % 1031,6 hPa 0,0 l/m 0 min 0 min 0 W/m 0,0 km/h (0 Bft) 97,87 %
06.02.2020 21:42 2,9 C 0,6 C 0,0 C 87 % 1031,6 hPa 0,0 l/m 0 min 0 min 0 W/m 0,0 km/h (0 Bft) 97,87 %
06.02.2020 21:44 2,9 C 0,6 C -0,6 C 88 % 1031,5 hPa 0,0 l/m 0 min 0 min 0 W/m 0,0 km/h (0 Bft) 95,74 %
06.02.2020 21:46 2,8 C 0,6 C -0,6 C 88 % 1031,6 hPa 0,0 l/m 0 min 0 min 0 W/m 0,0 km/h (0 Bft) 97,87 %
06.02.2020 21:48 2,8 C 0,6 C -0,6 C 88 % 1031,5 hPa 0,0 l/m 0 min 0 min 0 W/m 0,0 km/h (0 Bft) 55,56 %
06.02.2020 21:50 2,7 C 0,0 C -0,6 C 88 % 1031,6 hPa 0,0 l/m 0 min 0 min 0 W/m 0,0 km/h (0 Bft) 97,87 %
06.02.2020 21:52 2,7 C 0,0 C -0,6 C 88 % 1031,5 hPa 0,0 l/m 0 min 0 min 0 W/m 0,0 km/h (0 Bft) 97,83 %
06.02.2020 21:54 2,6 C 0,0 C -0,6 C 88 % 1031,5 hPa 0,0 l/m 0 min 0 min 0 W/m 0,0 km/h (0 Bft) 97,87 %
06.02.2020 21:56 2,6 C 0,0 C -0,6 C 88 % 1031,4 hPa 0,0 l/m 0 min 0 min 0 W/m 0,0 km/h (0 Bft) 97,87 %
06.02.2020 21:58 2,5 C 0,0 C -0,6 C 88 % 1031,5 hPa 0,0 l/m 0 min 0 min 0 W/m 0,0 km/h (0 Bft) 95,74 %
06.02.2020 22:00 2,4 C 0,0 C -0,6 C 88 % 1031,5 hPa 0,0 l/m 0 min 0 min 0 W/m 0,0 km/h (0 Bft) 95,74 %
06.02.2020 22:02 2,4 C 0,0 C -0,6 C 88 % 1031,5 hPa 0,0 l/m 0 min 0 min 0 W/m 0,0 km/h (0 Bft) 95,74 %
06.02.2020 22:04 2,3 C 0,0 C -0,6 C 88 % 1031,4 hPa 0,0 l/m 0 min 0 min 0 W/m 0,0 km/h (0 Bft) 97,83 %
06.02.2020 22:06 2,3 C 0,0 C -0,6 C 88 % 1031,4 hPa 0,0 l/m 0 min 0 min 0 W/m 0,0 km/h (0 Bft) 95,74 %
06.02.2020 22:08 2,2 C 0,0 C -0,6 C 88 % 1031,4 hPa 0,0 l/m 0 min 0 min 0 W/m 0,0 km/h (0 Bft) 93,62 %
06.02.2020 22:10 2,2 C 0,0 C -0,6 C 88 % 1031,4 hPa 0,0 l/m 0 min 0 min 0 W/m 0,0 km/h (0 Bft) 100,00 %
06.02.2020 22:12 2,1 C 0,0 C -0,6 C 89 % 1031,4 hPa 0,0 l/m 0 min 0 min 0 W/m 0,0 km/h (0 Bft) 93,62 %
06.02.2020 22:14 2,1 C 0,0 C -0,6 C 89 % 1031,4 hPa 0,0 l/m 0 min 0 min 0 W/m 0,0 km/h (0 Bft) 100,00 %
06.02.2020 22:16 2,1 C 0,0 C -0,6 C 89 % 1031,5 hPa 0,0 l/m 0 min 0 min 0 W/m 0,0 km/h (0 Bft) 97,87 %
06.02.2020 22:18 2,0 C 0,0 C -0,6 C 89 % 1031,5 hPa 0,0 l/m 0 min 0 min 0 W/m 0,0 km/h (0 Bft) 97,87 %
06.02.2020 22:20 1,9 C 0,0 C -0,6 C 89 % 1031,5 hPa 0,0 l/m 0 min 0 min 0 W/m 0,0 km/h (0 Bft) 95,74 %
06.02.2020 22:22 1,9 C 0,0 C -0,6 C 89 % 1031,5 hPa 0,0 l/m 0 min 0 min 0 W/m 0,0 km/h (0 Bft) 97,87 %
06.02.2020 22:24 1,8 C 0,0 C -0,6 C 89 % 1031,5 hPa 0,0 l/m 0 min 0 min 0 W/m 0,0 km/h (0 Bft) 97,87 %
06.02.2020 22:26 1,8 C 0,0 C -0,6 C 89 % 1031,5 hPa 0,0 l/m 0 min 0 min 0 W/m 0,0 km/h (0 Bft) 97,83 %
06.02.2020 22:28 1,8 C 0,0 C -1,1 C 89 % 1031,6 hPa 0,0 l/m 0 min 0 min 0 W/m 0,0 km/h (0 Bft) 95,74 %
06.02.2020 22:30 1,8 C 0,0 C -1,1 C 89 % 1031,5 hPa 0,0 l/m 0 min 0 min 0 W/m 0,0 km/h (0 Bft) 95,74 %
06.02.2020 22:32 1,7 C 0,0 C -1,1 C 89 % 1031,6 hPa 0,0 l/m 0 min 0 min 0 W/m 0,0 km/h (0 Bft) 97,87 %
06.02.2020 22:34 1,7 C 0,0 C -1,1 C 89 % 1031,5 hPa 0,0 l/m 0 min 0 min 0 W/m 0,0 km/h (0 Bft) 95,74 %
06.02.2020 22:36 1,7 C 0,0 C -1,1 C 89 % 1031,5 hPa 0,0 l/m 0 min 0 min 0 W/m 0,0 km/h (0 Bft) 97,87 %
06.02.2020 22:38 1,6 C 0,0 C -1,1 C 89 % 1031,5 hPa 0,0 l/m 0 min 0 min 0 W/m 0,0 km/h (0 Bft) 97,83 %
06.02.2020 22:40 1,6 C 0,0 C -1,1 C 89 % 1031,4 hPa 0,0 l/m 0 min 0 min 0 W/m 0,0 km/h (0 Bft) 97,87 %
06.02.2020 22:42 1,6 C 0,0 C -1,1 C 89 % 1031,4 hPa 0,0 l/m 0 min 0 min 0 W/m 0,0 km/h (0 Bft) 97,87 %
06.02.2020 22:44 1,5 C 0,0 C -1,1 C 89 % 1031,4 hPa 0,0 l/m 0 min 0 min 0 W/m 0,0 km/h (0 Bft) 97,87 %
06.02.2020 22:46 1,4 C -0,6 C -1,1 C 89 % 1031,4 hPa 0,0 l/m 0 min 0 min 0 W/m 0,0 km/h (0 Bft) 100,00 %
06.02.2020 22:48 1,4 C -0,6 C -1,1 C 89 % 1031,4 hPa 0,0 l/m 0 min 0 min 0 W/m 0,0 km/h (0 Bft) 100,00 %
06.02.2020 22:50 1,4 C -0,6 C -1,1 C 89 % 1031,3 hPa 0,0 l/m 0 min 0 min 0 W/m 0,0 km/h (0 Bft) 100,00 %
06.02.2020 22:52 1,4 C -0,6 C -1,1 C 89 % 1031,4 hPa 0,0 l/m 0 min 0 min 0 W/m 0,0 km/h (0 Bft) 100,00 %
06.02.2020 22:54 1,3 C -0,6 C -1,1 C 89 % 1031,4 hPa 0,0 l/m 0 min 0 min 0 W/m 0,0 km/h (0 Bft) 100,00 %
06.02.2020 22:56 1,3 C -0,6 C -1,1 C 89 % 1031,3 hPa 0,0 l/m 0 min 0 min 0 W/m 0,0 km/h (0 Bft) 100,00 %
06.02.2020 22:58 1,3 C -0,6 C -1,1 C 89 % 1031,3 hPa 0,0 l/m 0 min 0 min 0 W/m 0,0 km/h (0 Bft) 97,87 %
06.02.2020 23:00 1,2 C -0,6 C -1,7 C 89 % 1031,3 hPa 0,0 l/m 0 min 0 min 0 W/m 0,0 km/h (0 Bft) 100,00 %
06.02.2020 23:02 1,2 C -0,6 C -1,7 C 89 % 1031,3 hPa 0,0 l/m 0 min 0 min 0 W/m 0,0 km/h (0 Bft) 100,00 %
06.02.2020 23:04 1,2 C -0,6 C -1,7 C 90 % 1031,3 hPa 0,0 l/m 0 min 0 min 0 W/m 0,0 km/h (0 Bft) 100,00 %
06.02.2020 23:06 1,1 C -1,1 C -1,7 C 90 % 1031,4 hPa 0,0 l/m 0 min 0 min 0 W/m 0,0 km/h (0 Bft) 100,00 %
06.02.2020 23:08 1,1 C -1,1 C -1,7 C 89 % 1031,3 hPa 0,0 l/m 0 min 0 min 0 W/m 0,0 km/h (0 Bft) 100,00 %
06.02.2020 23:10 1,1 C -0,6 C -1,7 C 89 % 1031,3 hPa 0,0 l/m 0 min 0 min 0 W/m 0,0 km/h (0 Bft) 100,00 %
06.02.2020 23:12 1,0 C -0,6 C -1,7 C 89 % 1031,3 hPa 0,0 l/m 0 min 0 min 0 W/m 0,0 km/h (0 Bft) 100,00 %
06.02.2020 23:14 1,0 C -0,6 C -1,7 C 90 % 1031,2 hPa 0,0 l/m 0 min 0 min 0 W/m 0,0 km/h (0 Bft) 97,87 %
06.02.2020 23:16 0,9 C -1,1 C -1,7 C 90 % 1031,2 hPa 0,0 l/m 0 min 0 min 0 W/m 0,0 km/h (0 Bft) 97,87 %
06.02.2020 23:18 0,9 C -1,1 C -1,7 C 90 % 1031,3 hPa 0,0 l/m 0 min 0 min 0 W/m 0,0 km/h (0 Bft) 100,00 %
06.02.2020 23:20 0,8 C -0,6 C -1,7 C 90 % 1031,2 hPa 0,0 l/m 0 min 0 min 0 W/m 0,0 km/h (0 Bft) 100,00 %
06.02.2020 23:22 0,8 C -0,6 C -1,7 C 90 % 1031,2 hPa 0,0 l/m 0 min 0 min 0 W/m 0,0 km/h (0 Bft) 100,00 %
06.02.2020 23:24 0,8 C -0,6 C -1,7 C 90 % 1031,2 hPa 0,0 l/m 0 min 0 min 0 W/m 0,0 km/h (0 Bft) 97,83 %
06.02.2020 23:26 0,7 C -0,6 C -1,7 C 90 % 1031,2 hPa 0,0 l/m 0 min 0 min 0 W/m 0,0 km/h (0 Bft) 100,00 %
06.02.2020 23:28 0,7 C -1,1 C -1,7 C 90 % 1031,3 hPa 0,0 l/m 0 min 0 min 0 W/m 0,0 km/h (0 Bft) 100,00 %
06.02.2020 23:30 0,6 C -1,1 C -1,7 C 90 % 1031,2 hPa 0,0 l/m 0 min 0 min 0 W/m 0,0 km/h (0 Bft) 100,00 %
06.02.2020 23:32 0,6 C -1,1 C -1,7 C 90 % 1031,2 hPa 0,0 l/m 0 min 0 min 0 W/m 0,0 km/h (0 Bft) 100,00 %
06.02.2020 23:34 0,6 C -0,6 C -1,7 C 90 % 1031,2 hPa 0,0 l/m 0 min 0 min 0 W/m 0,0 km/h (0 Bft) 100,00 %
06.02.2020 23:36 0,6 C -1,1 C -1,7 C 90 % 1031,2 hPa 0,0 l/m 0 min 0 min 0 W/m 0,0 km/h (0 Bft) 100,00 %
06.02.2020 23:38 0,6 C -1,1 C -1,7 C 90 % 1031,2 hPa 0,0 l/m 0 min 0 min 0 W/m 0,0 km/h (0 Bft) 100,00 %
06.02.2020 23:40 0,6 C -1,1 C -1,7 C 90 % 1031,2 hPa 0,0 l/m 0 min 0 min 0 W/m 0,0 km/h (0 Bft) 100,00 %
06.02.2020 23:42 0,6 C -1,1 C -1,7 C 90 % 1031,2 hPa 0,0 l/m 0 min 0 min 0 W/m 0,0 km/h (0 Bft) 100,00 %
06.02.2020 23:44 0,5 C -1,1 C -1,7 C 90 % 1031,3 hPa 0,0 l/m 0 min 0 min 0 W/m 0,0 km/h (0 Bft) 97,87 %
06.02.2020 23:46 0,4 C -1,1 C -1,7 C 90 % 1031,3 hPa 0,0 l/m 0 min 0 min 0 W/m 0,0 km/h (0 Bft) 100,00 %
06.02.2020 23:48 0,4 C -1,1 C -1,7 C 90 % 1031,3 hPa 0,0 l/m 0 min 0 min 0 W/m 0,0 km/h (0 Bft) 100,00 %
06.02.2020 23:50 0,4 C -1,1 C -1,7 C 90 % 1031,3 hPa 0,0 l/m 0 min 0 min 0 W/m 0,0 km/h (0 Bft) 100,00 %
06.02.2020 23:52 0,4 C -1,1 C -1,7 C 90 % 1031,4 hPa 0,0 l/m 0 min 0 min 0 W/m 0,0 km/h (0 Bft) 97,87 %
06.02.2020 23:54 0,3 C -1,1 C -1,7 C 90 % 1031,3 hPa 0,0 l/m 0 min 0 min 0 W/m 0,0 km/h (0 Bft) 100,00 %
06.02.2020 23:56 0,3 C -1,1 C -1,7 C 90 % 1031,3 hPa 0,0 l/m 0 min 0 min 0 W/m 0,0 km/h (0 Bft) 100,00 %
06.02.2020 23:58 0,3 C -1,1 C -1,7 C 90 % 1031,3 hPa 0,0 l/m 0 min 0 min 0 W/m 0,0 km/h (0 Bft) 100,00 %
_ Min-Zeit 23:54 23:06 07:52 18:08 23:14 - - - - 00:10 05:50
Minimum _ 0,3 C -1,1 C -1,7 C 82 % 1031,2 hPa - - - - 0,0 km/h (0 Bft) 50,00 %
_ Max-Zeit 15:38 15:22 14:56 09:42 00:00 00:00 15:22 00:00 15:22 11:14 00:54
Maximum _ 7,0 C 8,3 C 6,7 C 96 % 1035,9 hPa 0,0 l/m 2 min 0 min 179 W/m 12,9 km/h
S (3 Bft)
100,00 %
Durchschnitt _ 4,0 C 3,3 C 2,6 C 90 % 1032,9 hPa #0,0 l/m #2 min. #0 min. 67 W/m 1,0 km/h (0 Bft) 97,13 %
© 2020 W. Hausmann